<?xml version="1.0" encoding="UTF-8" standalone="no" ?>
<gpx xmlns="http://www.topografix.com/GPX/1/1" xmlns:xsi="http://www.w3.org/2001/XMLSchema-instance" xsi:schemaLocation="http://www.topografix.com/GPX/1/1 http://www.topografix.com/GPX/1/1/gpx.xsd" version="1.1" creator="VisuGPX - https://www.visugpx.com">
  <metadata>
    <name>83-M-Vérignon</name>
    <desc><![CDATA[83-M-Vérignon : les trois Chapelles
2019-11-27]]></desc>
  </metadata>
  <trk>
    <name><![CDATA[2019-11-27-M-Vérignon]]></name>
    <trkseg>
      <trkpt lat="43.65213" lon="6.27509">
        <ele>855.7</ele>
        <time>2019-11-27T13:14:47Z</time>
      </trkpt>
      <trkpt lat="43.65213" lon="6.27509">
        <ele>855.7</ele>
        <time>2019-11-27T13:14:48Z</time>
      </trkpt>
      <trkpt lat="43.65204" lon="6.27506">
        <ele>855.6</ele>
        <time>2019-11-27T13:17:03Z</time>
      </trkpt>
      <trkpt lat="43.65195" lon="6.27509">
        <ele>856.4</ele>
        <time>2019-11-27T13:17:28Z</time>
      </trkpt>
      <trkpt lat="43.65186" lon="6.27508">
        <ele>858.7</ele>
        <time>2019-11-27T13:17:43Z</time>
      </trkpt>
      <trkpt lat="43.65177" lon="6.27506">
        <ele>860.3</ele>
        <time>2019-11-27T13:17:55Z</time>
      </trkpt>
      <trkpt lat="43.65168" lon="6.27503">
        <ele>861.6</ele>
        <time>2019-11-27T13:18:07Z</time>
      </trkpt>
      <trkpt lat="43.65159" lon="6.27501">
        <ele>862.3</ele>
        <time>2019-11-27T13:18:18Z</time>
      </trkpt>
      <trkpt lat="43.65151" lon="6.27497">
        <ele>865.1</ele>
        <time>2019-11-27T13:18:40Z</time>
      </trkpt>
      <trkpt lat="43.6514" lon="6.27496">
        <ele>867.2</ele>
        <time>2019-11-27T13:18:54Z</time>
      </trkpt>
      <trkpt lat="43.65131" lon="6.27497">
        <ele>868.8</ele>
        <time>2019-11-27T13:19:04Z</time>
      </trkpt>
      <trkpt lat="43.65122" lon="6.27502">
        <ele>869.9</ele>
        <time>2019-11-27T13:19:16Z</time>
      </trkpt>
      <trkpt lat="43.65114" lon="6.27508">
        <ele>870.7</ele>
        <time>2019-11-27T13:19:29Z</time>
      </trkpt>
      <trkpt lat="43.65105" lon="6.27513">
        <ele>872.2</ele>
        <time>2019-11-27T13:19:41Z</time>
      </trkpt>
      <trkpt lat="43.65096" lon="6.27516">
        <ele>873</ele>
        <time>2019-11-27T13:19:52Z</time>
      </trkpt>
      <trkpt lat="43.65087" lon="6.27519">
        <ele>874.3</ele>
        <time>2019-11-27T13:20:07Z</time>
      </trkpt>
      <trkpt lat="43.65078" lon="6.27521">
        <ele>875.2</ele>
        <time>2019-11-27T13:20:18Z</time>
      </trkpt>
      <trkpt lat="43.65069" lon="6.27524">
        <ele>876</ele>
        <time>2019-11-27T13:20:28Z</time>
      </trkpt>
      <trkpt lat="43.6506" lon="6.27528">
        <ele>877.2</ele>
        <time>2019-11-27T13:20:40Z</time>
      </trkpt>
      <trkpt lat="43.6505" lon="6.27531">
        <ele>878.4</ele>
        <time>2019-11-27T13:20:53Z</time>
      </trkpt>
      <trkpt lat="43.65041" lon="6.27534">
        <ele>879.5</ele>
        <time>2019-11-27T13:21:05Z</time>
      </trkpt>
      <trkpt lat="43.65031" lon="6.27538">
        <ele>880.7</ele>
        <time>2019-11-27T13:21:16Z</time>
      </trkpt>
      <trkpt lat="43.65022" lon="6.27542">
        <ele>881.7</ele>
        <time>2019-11-27T13:21:26Z</time>
      </trkpt>
      <trkpt lat="43.65014" lon="6.27546">
        <ele>882.6</ele>
        <time>2019-11-27T13:21:37Z</time>
      </trkpt>
      <trkpt lat="43.65005" lon="6.27551">
        <ele>883.3</ele>
        <time>2019-11-27T13:21:47Z</time>
      </trkpt>
      <trkpt lat="43.64997" lon="6.27557">
        <ele>884.3</ele>
        <time>2019-11-27T13:21:56Z</time>
      </trkpt>
      <trkpt lat="43.64989" lon="6.27562">
        <ele>885</ele>
        <time>2019-11-27T13:22:05Z</time>
      </trkpt>
      <trkpt lat="43.64984" lon="6.27573">
        <ele>885.8</ele>
        <time>2019-11-27T13:22:14Z</time>
      </trkpt>
      <trkpt lat="43.64977" lon="6.27583">
        <ele>886.7</ele>
        <time>2019-11-27T13:22:24Z</time>
      </trkpt>
      <trkpt lat="43.64969" lon="6.27589">
        <ele>887.3</ele>
        <time>2019-11-27T13:22:35Z</time>
      </trkpt>
      <trkpt lat="43.64959" lon="6.27588">
        <ele>888.3</ele>
        <time>2019-11-27T13:22:47Z</time>
      </trkpt>
      <trkpt lat="43.6495" lon="6.27583">
        <ele>889</ele>
        <time>2019-11-27T13:22:58Z</time>
      </trkpt>
      <trkpt lat="43.6494" lon="6.27579">
        <ele>889.8</ele>
        <time>2019-11-27T13:23:08Z</time>
      </trkpt>
      <trkpt lat="43.64932" lon="6.27574">
        <ele>890.3</ele>
        <time>2019-11-27T13:23:19Z</time>
      </trkpt>
      <trkpt lat="43.64923" lon="6.27569">
        <ele>890</ele>
        <time>2019-11-27T13:23:34Z</time>
      </trkpt>
      <trkpt lat="43.64914" lon="6.27567">
        <ele>889.2</ele>
        <time>2019-11-27T13:23:45Z</time>
      </trkpt>
      <trkpt lat="43.64904" lon="6.27565">
        <ele>888.3</ele>
        <time>2019-11-27T13:23:54Z</time>
      </trkpt>
      <trkpt lat="43.64896" lon="6.27558">
        <ele>887.7</ele>
        <time>2019-11-27T13:24:04Z</time>
      </trkpt>
      <trkpt lat="43.64888" lon="6.27551">
        <ele>887.3</ele>
        <time>2019-11-27T13:24:15Z</time>
      </trkpt>
      <trkpt lat="43.6488" lon="6.27544">
        <ele>887.1</ele>
        <time>2019-11-27T13:24:23Z</time>
      </trkpt>
      <trkpt lat="43.64872" lon="6.27539">
        <ele>887.3</ele>
        <time>2019-11-27T13:24:35Z</time>
      </trkpt>
      <trkpt lat="43.64865" lon="6.27529">
        <ele>888.2</ele>
        <time>2019-11-27T13:24:48Z</time>
      </trkpt>
      <trkpt lat="43.64858" lon="6.27521">
        <ele>890.1</ele>
        <time>2019-11-27T13:25:04Z</time>
      </trkpt>
      <trkpt lat="43.64853" lon="6.2751">
        <ele>892</ele>
        <time>2019-11-27T13:25:22Z</time>
      </trkpt>
      <trkpt lat="43.64847" lon="6.275">
        <ele>893</ele>
        <time>2019-11-27T13:25:37Z</time>
      </trkpt>
      <trkpt lat="43.6484" lon="6.2749">
        <ele>894.6</ele>
        <time>2019-11-27T13:25:52Z</time>
      </trkpt>
      <trkpt lat="43.64832" lon="6.27484">
        <ele>896.2</ele>
        <time>2019-11-27T13:26:03Z</time>
      </trkpt>
      <trkpt lat="43.64823" lon="6.27479">
        <ele>898.2</ele>
        <time>2019-11-27T13:26:20Z</time>
      </trkpt>
      <trkpt lat="43.64814" lon="6.27474">
        <ele>899.9</ele>
        <time>2019-11-27T13:26:40Z</time>
      </trkpt>
      <trkpt lat="43.64806" lon="6.27468">
        <ele>901.1</ele>
        <time>2019-11-27T13:26:50Z</time>
      </trkpt>
      <trkpt lat="43.64797" lon="6.27466">
        <ele>902.9</ele>
        <time>2019-11-27T13:27:07Z</time>
      </trkpt>
      <trkpt lat="43.64788" lon="6.27465">
        <ele>903.8</ele>
        <time>2019-11-27T13:27:24Z</time>
      </trkpt>
      <trkpt lat="43.64779" lon="6.27464">
        <ele>905</ele>
        <time>2019-11-27T13:27:41Z</time>
      </trkpt>
      <trkpt lat="43.6477" lon="6.27463">
        <ele>906.8</ele>
        <time>2019-11-27T13:27:58Z</time>
      </trkpt>
      <trkpt lat="43.6476" lon="6.2746">
        <ele>908.9</ele>
        <time>2019-11-27T13:28:14Z</time>
      </trkpt>
      <trkpt lat="43.64751" lon="6.27464">
        <ele>913</ele>
        <time>2019-11-27T13:28:41Z</time>
      </trkpt>
      <trkpt lat="43.64757" lon="6.27474">
        <ele>915.6</ele>
        <time>2019-11-27T13:29:02Z</time>
      </trkpt>
      <trkpt lat="43.64761" lon="6.27486">
        <ele>917.4</ele>
        <time>2019-11-27T13:29:18Z</time>
      </trkpt>
      <trkpt lat="43.64765" lon="6.27497">
        <ele>919.2</ele>
        <time>2019-11-27T13:29:34Z</time>
      </trkpt>
      <trkpt lat="43.64769" lon="6.27509">
        <ele>921.3</ele>
        <time>2019-11-27T13:29:49Z</time>
      </trkpt>
      <trkpt lat="43.64773" lon="6.2752">
        <ele>922.7</ele>
        <time>2019-11-27T13:30:03Z</time>
      </trkpt>
      <trkpt lat="43.6478" lon="6.2753">
        <ele>925.2</ele>
        <time>2019-11-27T13:30:21Z</time>
      </trkpt>
      <trkpt lat="43.64781" lon="6.27542">
        <ele>927.5</ele>
        <time>2019-11-27T13:30:37Z</time>
      </trkpt>
      <trkpt lat="43.64777" lon="6.27554">
        <ele>929.7</ele>
        <time>2019-11-27T13:30:53Z</time>
      </trkpt>
      <trkpt lat="43.6477" lon="6.27563">
        <ele>931.7</ele>
        <time>2019-11-27T13:31:09Z</time>
      </trkpt>
      <trkpt lat="43.64764" lon="6.27573">
        <ele>932.7</ele>
        <time>2019-11-27T13:31:24Z</time>
      </trkpt>
      <trkpt lat="43.64759" lon="6.27585">
        <ele>934.5</ele>
        <time>2019-11-27T13:31:36Z</time>
      </trkpt>
      <trkpt lat="43.64752" lon="6.27594">
        <ele>936.3</ele>
        <time>2019-11-27T13:31:53Z</time>
      </trkpt>
      <trkpt lat="43.64747" lon="6.27605">
        <ele>937.9</ele>
        <time>2019-11-27T13:32:06Z</time>
      </trkpt>
      <trkpt lat="43.6474" lon="6.27613">
        <ele>939.1</ele>
        <time>2019-11-27T13:32:17Z</time>
      </trkpt>
      <trkpt lat="43.64733" lon="6.27621">
        <ele>940</ele>
        <time>2019-11-27T13:32:29Z</time>
      </trkpt>
      <trkpt lat="43.64727" lon="6.27631">
        <ele>940.8</ele>
        <time>2019-11-27T13:32:37Z</time>
      </trkpt>
      <trkpt lat="43.64722" lon="6.27642">
        <ele>941.7</ele>
        <time>2019-11-27T13:32:46Z</time>
      </trkpt>
      <trkpt lat="43.64715" lon="6.27652">
        <ele>942.5</ele>
        <time>2019-11-27T13:32:56Z</time>
      </trkpt>
      <trkpt lat="43.64707" lon="6.27658">
        <ele>944</ele>
        <time>2019-11-27T13:33:09Z</time>
      </trkpt>
      <trkpt lat="43.647" lon="6.27667">
        <ele>946</ele>
        <time>2019-11-27T13:33:23Z</time>
      </trkpt>
      <trkpt lat="43.64691" lon="6.27671">
        <ele>948.2</ele>
        <time>2019-11-27T13:33:38Z</time>
      </trkpt>
      <trkpt lat="43.64683" lon="6.27678">
        <ele>950</ele>
        <time>2019-11-27T13:33:52Z</time>
      </trkpt>
      <trkpt lat="43.64675" lon="6.27684">
        <ele>951.3</ele>
        <time>2019-11-27T13:34:04Z</time>
      </trkpt>
      <trkpt lat="43.64667" lon="6.27691">
        <ele>952.5</ele>
        <time>2019-11-27T13:34:15Z</time>
      </trkpt>
      <trkpt lat="43.64658" lon="6.27696">
        <ele>953.8</ele>
        <time>2019-11-27T13:34:28Z</time>
      </trkpt>
      <trkpt lat="43.64649" lon="6.27701">
        <ele>955.6</ele>
        <time>2019-11-27T13:34:44Z</time>
      </trkpt>
      <trkpt lat="43.64641" lon="6.27707">
        <ele>956.8</ele>
        <time>2019-11-27T13:34:56Z</time>
      </trkpt>
      <trkpt lat="43.64633" lon="6.27712">
        <ele>958.6</ele>
        <time>2019-11-27T13:35:09Z</time>
      </trkpt>
      <trkpt lat="43.64624" lon="6.27718">
        <ele>960</ele>
        <time>2019-11-27T13:35:22Z</time>
      </trkpt>
      <trkpt lat="43.64616" lon="6.27724">
        <ele>961.8</ele>
        <time>2019-11-27T13:35:40Z</time>
      </trkpt>
      <trkpt lat="43.64609" lon="6.27732">
        <ele>963.6</ele>
        <time>2019-11-27T13:35:55Z</time>
      </trkpt>
      <trkpt lat="43.64601" lon="6.27739">
        <ele>964.8</ele>
        <time>2019-11-27T13:36:10Z</time>
      </trkpt>
      <trkpt lat="43.64592" lon="6.27741">
        <ele>967.3</ele>
        <time>2019-11-27T13:36:28Z</time>
      </trkpt>
      <trkpt lat="43.64584" lon="6.27747">
        <ele>968.9</ele>
        <time>2019-11-27T13:36:40Z</time>
      </trkpt>
      <trkpt lat="43.64575" lon="6.27751">
        <ele>970.5</ele>
        <time>2019-11-27T13:36:53Z</time>
      </trkpt>
      <trkpt lat="43.64566" lon="6.27753">
        <ele>972</ele>
        <time>2019-11-27T13:37:08Z</time>
      </trkpt>
      <trkpt lat="43.64557" lon="6.27757">
        <ele>973.9</ele>
        <time>2019-11-27T13:37:21Z</time>
      </trkpt>
      <trkpt lat="43.64547" lon="6.27758">
        <ele>975.4</ele>
        <time>2019-11-27T13:37:32Z</time>
      </trkpt>
      <trkpt lat="43.64538" lon="6.27757">
        <ele>977</ele>
        <time>2019-11-27T13:37:45Z</time>
      </trkpt>
      <trkpt lat="43.64529" lon="6.27753">
        <ele>978.7</ele>
        <time>2019-11-27T13:37:58Z</time>
      </trkpt>
      <trkpt lat="43.64526" lon="6.27741">
        <ele>981.3</ele>
        <time>2019-11-27T13:38:17Z</time>
      </trkpt>
      <trkpt lat="43.64527" lon="6.27728">
        <ele>983.8</ele>
        <time>2019-11-27T13:38:39Z</time>
      </trkpt>
      <trkpt lat="43.64521" lon="6.27718">
        <ele>985.6</ele>
        <time>2019-11-27T13:41:34Z</time>
      </trkpt>
      <trkpt lat="43.64519" lon="6.27705">
        <ele>987</ele>
        <time>2019-11-27T13:41:53Z</time>
      </trkpt>
      <trkpt lat="43.64513" lon="6.27695">
        <ele>987.8</ele>
        <time>2019-11-27T13:42:09Z</time>
      </trkpt>
      <trkpt lat="43.64505" lon="6.27688">
        <ele>987.5</ele>
        <time>2019-11-27T13:42:21Z</time>
      </trkpt>
      <trkpt lat="43.64498" lon="6.27678">
        <ele>987</ele>
        <time>2019-11-27T13:42:33Z</time>
      </trkpt>
      <trkpt lat="43.64492" lon="6.27669">
        <ele>986.8</ele>
        <time>2019-11-27T13:42:44Z</time>
      </trkpt>
      <trkpt lat="43.64487" lon="6.27657">
        <ele>986.7</ele>
        <time>2019-11-27T13:42:56Z</time>
      </trkpt>
      <trkpt lat="43.6448" lon="6.27649">
        <ele>985.8</ele>
        <time>2019-11-27T13:43:08Z</time>
      </trkpt>
      <trkpt lat="43.64472" lon="6.27642">
        <ele>985.2</ele>
        <time>2019-11-27T13:43:18Z</time>
      </trkpt>
      <trkpt lat="43.64466" lon="6.27631">
        <ele>984.7</ele>
        <time>2019-11-27T13:43:38Z</time>
      </trkpt>
      <trkpt lat="43.6446" lon="6.27621">
        <ele>985.3</ele>
        <time>2019-11-27T13:43:53Z</time>
      </trkpt>
      <trkpt lat="43.64452" lon="6.27614">
        <ele>986.6</ele>
        <time>2019-11-27T13:44:07Z</time>
      </trkpt>
      <trkpt lat="43.64442" lon="6.27612">
        <ele>989</ele>
        <time>2019-11-27T13:44:27Z</time>
      </trkpt>
      <trkpt lat="43.64433" lon="6.27615">
        <ele>990.5</ele>
        <time>2019-11-27T13:44:39Z</time>
      </trkpt>
      <trkpt lat="43.64425" lon="6.27621">
        <ele>991.6</ele>
        <time>2019-11-27T13:44:52Z</time>
      </trkpt>
      <trkpt lat="43.64416" lon="6.27624">
        <ele>991.9</ele>
        <time>2019-11-27T13:45:02Z</time>
      </trkpt>
      <trkpt lat="43.64406" lon="6.27626">
        <ele>992</ele>
        <time>2019-11-27T13:45:12Z</time>
      </trkpt>
      <trkpt lat="43.64402" lon="6.27637">
        <ele>992.7</ele>
        <time>2019-11-27T13:45:31Z</time>
      </trkpt>
      <trkpt lat="43.64393" lon="6.27644">
        <ele>993</ele>
        <time>2019-11-27T13:45:40Z</time>
      </trkpt>
      <trkpt lat="43.64385" lon="6.2765">
        <ele>993.6</ele>
        <time>2019-11-27T13:45:54Z</time>
      </trkpt>
      <trkpt lat="43.64378" lon="6.27658">
        <ele>994.7</ele>
        <time>2019-11-27T13:46:07Z</time>
      </trkpt>
      <trkpt lat="43.64371" lon="6.27666">
        <ele>995.5</ele>
        <time>2019-11-27T13:46:18Z</time>
      </trkpt>
      <trkpt lat="43.64363" lon="6.27673">
        <ele>996.5</ele>
        <time>2019-11-27T13:46:29Z</time>
      </trkpt>
      <trkpt lat="43.64357" lon="6.27682">
        <ele>998</ele>
        <time>2019-11-27T13:46:54Z</time>
      </trkpt>
      <trkpt lat="43.64349" lon="6.27686">
        <ele>998.9</ele>
        <time>2019-11-27T13:47:11Z</time>
      </trkpt>
      <trkpt lat="43.6434" lon="6.27692">
        <ele>999.6</ele>
        <time>2019-11-27T13:47:24Z</time>
      </trkpt>
      <trkpt lat="43.64332" lon="6.27698">
        <ele>1000.9</ele>
        <time>2019-11-27T13:47:41Z</time>
      </trkpt>
      <trkpt lat="43.64323" lon="6.27703">
        <ele>1003.5</ele>
        <time>2019-11-27T13:48:00Z</time>
      </trkpt>
      <trkpt lat="43.64314" lon="6.27708">
        <ele>1004.9</ele>
        <time>2019-11-27T13:48:16Z</time>
      </trkpt>
      <trkpt lat="43.64305" lon="6.27712">
        <ele>1008.7</ele>
        <time>2019-11-27T13:48:49Z</time>
      </trkpt>
      <trkpt lat="43.64296" lon="6.27716">
        <ele>1010.2</ele>
        <time>2019-11-27T13:49:04Z</time>
      </trkpt>
      <trkpt lat="43.64288" lon="6.27724">
        <ele>1011</ele>
        <time>2019-11-27T13:49:18Z</time>
      </trkpt>
      <trkpt lat="43.64279" lon="6.27727">
        <ele>1011.6</ele>
        <time>2019-11-27T13:49:27Z</time>
      </trkpt>
      <trkpt lat="43.6427" lon="6.2773">
        <ele>1013.5</ele>
        <time>2019-11-27T13:49:46Z</time>
      </trkpt>
      <trkpt lat="43.64261" lon="6.2773">
        <ele>1015.4</ele>
        <time>2019-11-27T13:50:01Z</time>
      </trkpt>
      <trkpt lat="43.64252" lon="6.27733">
        <ele>1017.6</ele>
        <time>2019-11-27T13:50:17Z</time>
      </trkpt>
      <trkpt lat="43.64243" lon="6.27734">
        <ele>1019.8</ele>
        <time>2019-11-27T13:50:38Z</time>
      </trkpt>
      <trkpt lat="43.64234" lon="6.27737">
        <ele>1021.5</ele>
        <time>2019-11-27T13:50:53Z</time>
      </trkpt>
      <trkpt lat="43.64224" lon="6.27737">
        <ele>1024.5</ele>
        <time>2019-11-27T13:51:17Z</time>
      </trkpt>
      <trkpt lat="43.64215" lon="6.27739">
        <ele>1027.6</ele>
        <time>2019-11-27T13:51:39Z</time>
      </trkpt>
      <trkpt lat="43.64206" lon="6.27744">
        <ele>1029.4</ele>
        <time>2019-11-27T13:51:54Z</time>
      </trkpt>
      <trkpt lat="43.64197" lon="6.27746">
        <ele>1031</ele>
        <time>2019-11-27T13:52:08Z</time>
      </trkpt>
      <trkpt lat="43.64188" lon="6.2775">
        <ele>1032.8</ele>
        <time>2019-11-27T13:52:23Z</time>
      </trkpt>
      <trkpt lat="43.64179" lon="6.27749">
        <ele>1035.2</ele>
        <time>2019-11-27T13:52:45Z</time>
      </trkpt>
      <trkpt lat="43.64174" lon="6.27738">
        <ele>1037.8</ele>
        <time>2019-11-27T13:53:20Z</time>
      </trkpt>
      <trkpt lat="43.64165" lon="6.2774">
        <ele>1039.6</ele>
        <time>2019-11-27T13:55:23Z</time>
      </trkpt>
      <trkpt lat="43.64159" lon="6.27749">
        <ele>1039.4</ele>
        <time>2019-11-27T13:57:05Z</time>
      </trkpt>
      <trkpt lat="43.64152" lon="6.27759">
        <ele>1040.2</ele>
        <time>2019-11-27T13:57:18Z</time>
      </trkpt>
      <trkpt lat="43.64148" lon="6.2777">
        <ele>1041.6</ele>
        <time>2019-11-27T13:57:32Z</time>
      </trkpt>
      <trkpt lat="43.64142" lon="6.27779">
        <ele>1042.8</ele>
        <time>2019-11-27T13:57:44Z</time>
      </trkpt>
      <trkpt lat="43.64135" lon="6.27789">
        <ele>1043.8</ele>
        <time>2019-11-27T13:57:54Z</time>
      </trkpt>
      <trkpt lat="43.64129" lon="6.27799">
        <ele>1044.7</ele>
        <time>2019-11-27T13:58:06Z</time>
      </trkpt>
      <trkpt lat="43.64121" lon="6.27807">
        <ele>1045.5</ele>
        <time>2019-11-27T13:58:16Z</time>
      </trkpt>
      <trkpt lat="43.64114" lon="6.27814">
        <ele>1046.4</ele>
        <time>2019-11-27T13:58:27Z</time>
      </trkpt>
      <trkpt lat="43.64106" lon="6.27821">
        <ele>1046.8</ele>
        <time>2019-11-27T13:58:38Z</time>
      </trkpt>
      <trkpt lat="43.64096" lon="6.27825">
        <ele>1046.9</ele>
        <time>2019-11-27T13:58:47Z</time>
      </trkpt>
      <trkpt lat="43.64088" lon="6.27832">
        <ele>1046.9</ele>
        <time>2019-11-27T13:58:56Z</time>
      </trkpt>
      <trkpt lat="43.64086" lon="6.27844">
        <ele>1047</ele>
        <time>2019-11-27T13:59:06Z</time>
      </trkpt>
      <trkpt lat="43.64081" lon="6.27855">
        <ele>1047.5</ele>
        <time>2019-11-27T13:59:18Z</time>
      </trkpt>
      <trkpt lat="43.64073" lon="6.27862">
        <ele>1047.8</ele>
        <time>2019-11-27T13:59:29Z</time>
      </trkpt>
      <trkpt lat="43.64065" lon="6.27869">
        <ele>1048</ele>
        <time>2019-11-27T13:59:38Z</time>
      </trkpt>
      <trkpt lat="43.64057" lon="6.27877">
        <ele>1048.3</ele>
        <time>2019-11-27T13:59:49Z</time>
      </trkpt>
      <trkpt lat="43.6405" lon="6.27885">
        <ele>1049</ele>
        <time>2019-11-27T14:00:00Z</time>
      </trkpt>
      <trkpt lat="43.64045" lon="6.27896">
        <ele>1050.1</ele>
        <time>2019-11-27T14:00:12Z</time>
      </trkpt>
      <trkpt lat="43.64041" lon="6.27908">
        <ele>1051.2</ele>
        <time>2019-11-27T14:00:28Z</time>
      </trkpt>
      <trkpt lat="43.64036" lon="6.27918">
        <ele>1053.8</ele>
        <time>2019-11-27T14:00:47Z</time>
      </trkpt>
      <trkpt lat="43.64037" lon="6.2793">
        <ele>1055.2</ele>
        <time>2019-11-27T14:00:58Z</time>
      </trkpt>
      <trkpt lat="43.64034" lon="6.27943">
        <ele>1057.3</ele>
        <time>2019-11-27T14:01:13Z</time>
      </trkpt>
      <trkpt lat="43.64028" lon="6.27953">
        <ele>1059.7</ele>
        <time>2019-11-27T14:01:30Z</time>
      </trkpt>
      <trkpt lat="43.6402" lon="6.27957">
        <ele>1062.1</ele>
        <time>2019-11-27T14:01:45Z</time>
      </trkpt>
      <trkpt lat="43.64014" lon="6.27967">
        <ele>1064.4</ele>
        <time>2019-11-27T14:01:59Z</time>
      </trkpt>
      <trkpt lat="43.64006" lon="6.27975">
        <ele>1067.1</ele>
        <time>2019-11-27T14:02:16Z</time>
      </trkpt>
      <trkpt lat="43.63998" lon="6.2798">
        <ele>1069.4</ele>
        <time>2019-11-27T14:02:31Z</time>
      </trkpt>
      <trkpt lat="43.63993" lon="6.27991">
        <ele>1071.6</ele>
        <time>2019-11-27T14:02:48Z</time>
      </trkpt>
      <trkpt lat="43.63998" lon="6.28002">
        <ele>1072</ele>
        <time>2019-11-27T14:04:19Z</time>
      </trkpt>
      <trkpt lat="43.6399" lon="6.27996">
        <ele>1073.6</ele>
        <time>2019-11-27T14:05:20Z</time>
      </trkpt>
      <trkpt lat="43.63994" lon="6.27984">
        <ele>1073</ele>
        <time>2019-11-27T14:07:11Z</time>
      </trkpt>
      <trkpt lat="43.64003" lon="6.2798">
        <ele>1071.6</ele>
        <time>2019-11-27T14:07:25Z</time>
      </trkpt>
      <trkpt lat="43.64012" lon="6.27974">
        <ele>1069.7</ele>
        <time>2019-11-27T14:07:40Z</time>
      </trkpt>
      <trkpt lat="43.64019" lon="6.27964">
        <ele>1066.5</ele>
        <time>2019-11-27T14:07:55Z</time>
      </trkpt>
      <trkpt lat="43.64027" lon="6.27959">
        <ele>1063.9</ele>
        <time>2019-11-27T14:08:10Z</time>
      </trkpt>
      <trkpt lat="43.64033" lon="6.27948">
        <ele>1061.7</ele>
        <time>2019-11-27T14:08:26Z</time>
      </trkpt>
      <trkpt lat="43.64037" lon="6.27936">
        <ele>1060.5</ele>
        <time>2019-11-27T14:08:37Z</time>
      </trkpt>
      <trkpt lat="43.64042" lon="6.27925">
        <ele>1057.9</ele>
        <time>2019-11-27T14:08:56Z</time>
      </trkpt>
      <trkpt lat="43.64044" lon="6.27913">
        <ele>1056.1</ele>
        <time>2019-11-27T14:09:12Z</time>
      </trkpt>
      <trkpt lat="43.64047" lon="6.279">
        <ele>1054.5</ele>
        <time>2019-11-27T14:09:28Z</time>
      </trkpt>
      <trkpt lat="43.64052" lon="6.27889">
        <ele>1053.4</ele>
        <time>2019-11-27T14:09:39Z</time>
      </trkpt>
      <trkpt lat="43.64058" lon="6.27879">
        <ele>1052.7</ele>
        <time>2019-11-27T14:09:49Z</time>
      </trkpt>
      <trkpt lat="43.64064" lon="6.2787">
        <ele>1052</ele>
        <time>2019-11-27T14:09:59Z</time>
      </trkpt>
      <trkpt lat="43.64071" lon="6.27863">
        <ele>1050.6</ele>
        <time>2019-11-27T14:10:10Z</time>
      </trkpt>
      <trkpt lat="43.64076" lon="6.27852">
        <ele>1049.6</ele>
        <time>2019-11-27T14:10:23Z</time>
      </trkpt>
      <trkpt lat="43.64084" lon="6.27842">
        <ele>1049.2</ele>
        <time>2019-11-27T14:10:31Z</time>
      </trkpt>
      <trkpt lat="43.64091" lon="6.27835">
        <ele>1048.4</ele>
        <time>2019-11-27T14:10:39Z</time>
      </trkpt>
      <trkpt lat="43.64099" lon="6.2783">
        <ele>1047.9</ele>
        <time>2019-11-27T14:10:47Z</time>
      </trkpt>
      <trkpt lat="43.64108" lon="6.27827">
        <ele>1047.6</ele>
        <time>2019-11-27T14:10:55Z</time>
      </trkpt>
      <trkpt lat="43.64116" lon="6.27819">
        <ele>1047.4</ele>
        <time>2019-11-27T14:11:04Z</time>
      </trkpt>
      <trkpt lat="43.64122" lon="6.2781">
        <ele>1047.1</ele>
        <time>2019-11-27T14:11:14Z</time>
      </trkpt>
      <trkpt lat="43.64129" lon="6.27801">
        <ele>1046.9</ele>
        <time>2019-11-27T14:11:23Z</time>
      </trkpt>
      <trkpt lat="43.64137" lon="6.27793">
        <ele>1046</ele>
        <time>2019-11-27T14:11:34Z</time>
      </trkpt>
      <trkpt lat="43.64145" lon="6.27787">
        <ele>1045</ele>
        <time>2019-11-27T14:11:44Z</time>
      </trkpt>
      <trkpt lat="43.64151" lon="6.27777">
        <ele>1043.9</ele>
        <time>2019-11-27T14:11:54Z</time>
      </trkpt>
      <trkpt lat="43.64153" lon="6.27765">
        <ele>1042.3</ele>
        <time>2019-11-27T14:12:05Z</time>
      </trkpt>
      <trkpt lat="43.64159" lon="6.27755">
        <ele>1041.2</ele>
        <time>2019-11-27T14:12:15Z</time>
      </trkpt>
      <trkpt lat="43.64167" lon="6.27746">
        <ele>1039.9</ele>
        <time>2019-11-27T14:12:25Z</time>
      </trkpt>
      <trkpt lat="43.64173" lon="6.27736">
        <ele>1039.1</ele>
        <time>2019-11-27T14:12:33Z</time>
      </trkpt>
      <trkpt lat="43.6418" lon="6.27726">
        <ele>1038.5</ele>
        <time>2019-11-27T14:12:42Z</time>
      </trkpt>
      <trkpt lat="43.64187" lon="6.27717">
        <ele>1037.9</ele>
        <time>2019-11-27T14:12:50Z</time>
      </trkpt>
      <trkpt lat="43.64191" lon="6.27706">
        <ele>1037.2</ele>
        <time>2019-11-27T14:12:59Z</time>
      </trkpt>
      <trkpt lat="43.64196" lon="6.27694">
        <ele>1037.1</ele>
        <time>2019-11-27T14:13:09Z</time>
      </trkpt>
      <trkpt lat="43.64201" lon="6.27684">
        <ele>1037</ele>
        <time>2019-11-27T14:13:19Z</time>
      </trkpt>
      <trkpt lat="43.64208" lon="6.27675">
        <ele>1036.7</ele>
        <time>2019-11-27T14:13:29Z</time>
      </trkpt>
      <trkpt lat="43.64217" lon="6.27673">
        <ele>1036.3</ele>
        <time>2019-11-27T14:13:38Z</time>
      </trkpt>
      <trkpt lat="43.64224" lon="6.27664">
        <ele>1036.1</ele>
        <time>2019-11-27T14:13:48Z</time>
      </trkpt>
      <trkpt lat="43.64231" lon="6.27655">
        <ele>1036.1</ele>
        <time>2019-11-27T14:13:57Z</time>
      </trkpt>
      <trkpt lat="43.64238" lon="6.27644">
        <ele>1036.7</ele>
        <time>2019-11-27T14:14:07Z</time>
      </trkpt>
      <trkpt lat="43.64241" lon="6.27632">
        <ele>1037.4</ele>
        <time>2019-11-27T14:14:18Z</time>
      </trkpt>
      <trkpt lat="43.64248" lon="6.27623">
        <ele>1038.8</ele>
        <time>2019-11-27T14:14:30Z</time>
      </trkpt>
      <trkpt lat="43.64256" lon="6.27616">
        <ele>1039.6</ele>
        <time>2019-11-27T14:14:39Z</time>
      </trkpt>
      <trkpt lat="43.64262" lon="6.27606">
        <ele>1041.1</ele>
        <time>2019-11-27T14:14:52Z</time>
      </trkpt>
      <trkpt lat="43.64266" lon="6.27594">
        <ele>1042.7</ele>
        <time>2019-11-27T14:15:05Z</time>
      </trkpt>
      <trkpt lat="43.64269" lon="6.27581">
        <ele>1044.5</ele>
        <time>2019-11-27T14:15:19Z</time>
      </trkpt>
      <trkpt lat="43.64275" lon="6.27571">
        <ele>1045.9</ele>
        <time>2019-11-27T14:15:29Z</time>
      </trkpt>
      <trkpt lat="43.64277" lon="6.27559">
        <ele>1047</ele>
        <time>2019-11-27T14:15:39Z</time>
      </trkpt>
      <trkpt lat="43.64281" lon="6.27547">
        <ele>1048.8</ele>
        <time>2019-11-27T14:15:52Z</time>
      </trkpt>
      <trkpt lat="43.64287" lon="6.27537">
        <ele>1050</ele>
        <time>2019-11-27T14:16:05Z</time>
      </trkpt>
      <trkpt lat="43.64287" lon="6.27524">
        <ele>1051</ele>
        <time>2019-11-27T14:16:18Z</time>
      </trkpt>
      <trkpt lat="43.6429" lon="6.27511">
        <ele>1052.3</ele>
        <time>2019-11-27T14:16:31Z</time>
      </trkpt>
      <trkpt lat="43.64295" lon="6.275">
        <ele>1053.5</ele>
        <time>2019-11-27T14:16:41Z</time>
      </trkpt>
      <trkpt lat="43.64303" lon="6.27493">
        <ele>1054</ele>
        <time>2019-11-27T14:16:51Z</time>
      </trkpt>
      <trkpt lat="43.64312" lon="6.27487">
        <ele>1053.9</ele>
        <time>2019-11-27T14:17:04Z</time>
      </trkpt>
      <trkpt lat="43.6432" lon="6.27481">
        <ele>1054.1</ele>
        <time>2019-11-27T14:17:12Z</time>
      </trkpt>
      <trkpt lat="43.64326" lon="6.27471">
        <ele>1054.4</ele>
        <time>2019-11-27T14:17:23Z</time>
      </trkpt>
      <trkpt lat="43.64331" lon="6.2746">
        <ele>1055.4</ele>
        <time>2019-11-27T14:17:34Z</time>
      </trkpt>
      <trkpt lat="43.64337" lon="6.2745">
        <ele>1056.3</ele>
        <time>2019-11-27T14:17:46Z</time>
      </trkpt>
      <trkpt lat="43.64344" lon="6.27441">
        <ele>1058.2</ele>
        <time>2019-11-27T14:18:00Z</time>
      </trkpt>
      <trkpt lat="43.6435" lon="6.27432">
        <ele>1059.4</ele>
        <time>2019-11-27T14:18:14Z</time>
      </trkpt>
      <trkpt lat="43.64357" lon="6.27423">
        <ele>1060.5</ele>
        <time>2019-11-27T14:18:26Z</time>
      </trkpt>
      <trkpt lat="43.64363" lon="6.27414">
        <ele>1061.2</ele>
        <time>2019-11-27T14:18:36Z</time>
      </trkpt>
      <trkpt lat="43.64372" lon="6.27411">
        <ele>1061.6</ele>
        <time>2019-11-27T14:18:47Z</time>
      </trkpt>
      <trkpt lat="43.64382" lon="6.27409">
        <ele>1062.1</ele>
        <time>2019-11-27T14:18:59Z</time>
      </trkpt>
      <trkpt lat="43.64389" lon="6.27402">
        <ele>1062.4</ele>
        <time>2019-11-27T14:19:11Z</time>
      </trkpt>
      <trkpt lat="43.64396" lon="6.27394">
        <ele>1063</ele>
        <time>2019-11-27T14:19:22Z</time>
      </trkpt>
      <trkpt lat="43.64403" lon="6.27385">
        <ele>1064.1</ele>
        <time>2019-11-27T14:19:36Z</time>
      </trkpt>
      <trkpt lat="43.64406" lon="6.27373">
        <ele>1066</ele>
        <time>2019-11-27T14:19:50Z</time>
      </trkpt>
      <trkpt lat="43.6441" lon="6.27361">
        <ele>1067.3</ele>
        <time>2019-11-27T14:20:02Z</time>
      </trkpt>
      <trkpt lat="43.64417" lon="6.27353">
        <ele>1068.6</ele>
        <time>2019-11-27T14:20:18Z</time>
      </trkpt>
      <trkpt lat="43.64424" lon="6.27344">
        <ele>1069.9</ele>
        <time>2019-11-27T14:20:32Z</time>
      </trkpt>
      <trkpt lat="43.64432" lon="6.27339">
        <ele>1072</ele>
        <time>2019-11-27T14:20:47Z</time>
      </trkpt>
      <trkpt lat="43.6444" lon="6.27332">
        <ele>1073.3</ele>
        <time>2019-11-27T14:20:56Z</time>
      </trkpt>
      <trkpt lat="43.64447" lon="6.27323">
        <ele>1074.1</ele>
        <time>2019-11-27T14:21:06Z</time>
      </trkpt>
      <trkpt lat="43.64451" lon="6.27311">
        <ele>1075.4</ele>
        <time>2019-11-27T14:21:17Z</time>
      </trkpt>
      <trkpt lat="43.64456" lon="6.27301">
        <ele>1078.7</ele>
        <time>2019-11-27T14:21:54Z</time>
      </trkpt>
      <trkpt lat="43.6446" lon="6.27289">
        <ele>1079.7</ele>
        <time>2019-11-27T14:22:06Z</time>
      </trkpt>
      <trkpt lat="43.64459" lon="6.27277">
        <ele>1081.2</ele>
        <time>2019-11-27T14:22:18Z</time>
      </trkpt>
      <trkpt lat="43.6446" lon="6.27264">
        <ele>1082.7</ele>
        <time>2019-11-27T14:22:54Z</time>
      </trkpt>
      <trkpt lat="43.64463" lon="6.27252">
        <ele>1082.1</ele>
        <time>2019-11-27T14:23:09Z</time>
      </trkpt>
      <trkpt lat="43.64467" lon="6.2724">
        <ele>1081.1</ele>
        <time>2019-11-27T14:23:21Z</time>
      </trkpt>
      <trkpt lat="43.64472" lon="6.27229">
        <ele>1078.4</ele>
        <time>2019-11-27T14:24:27Z</time>
      </trkpt>
      <trkpt lat="43.64481" lon="6.27235">
        <ele>1077.2</ele>
        <time>2019-11-27T14:24:51Z</time>
      </trkpt>
      <trkpt lat="43.6449" lon="6.27238">
        <ele>1076.1</ele>
        <time>2019-11-27T14:25:15Z</time>
      </trkpt>
      <trkpt lat="43.64499" lon="6.2724">
        <ele>1071.9</ele>
        <time>2019-11-27T14:25:52Z</time>
      </trkpt>
      <trkpt lat="43.64507" lon="6.27236">
        <ele>1068.4</ele>
        <time>2019-11-27T14:26:18Z</time>
      </trkpt>
      <trkpt lat="43.64515" lon="6.27228">
        <ele>1065.7</ele>
        <time>2019-11-27T14:26:49Z</time>
      </trkpt>
      <trkpt lat="43.64524" lon="6.27224">
        <ele>1062.3</ele>
        <time>2019-11-27T14:27:13Z</time>
      </trkpt>
      <trkpt lat="43.64534" lon="6.27222">
        <ele>1058.7</ele>
        <time>2019-11-27T14:27:40Z</time>
      </trkpt>
      <trkpt lat="43.64542" lon="6.27218">
        <ele>1054.2</ele>
        <time>2019-11-27T14:28:10Z</time>
      </trkpt>
      <trkpt lat="43.64552" lon="6.27221">
        <ele>1052.4</ele>
        <time>2019-11-27T14:28:30Z</time>
      </trkpt>
      <trkpt lat="43.64561" lon="6.27219">
        <ele>1051.5</ele>
        <time>2019-11-27T14:28:56Z</time>
      </trkpt>
      <trkpt lat="43.64571" lon="6.27219">
        <ele>1049.6</ele>
        <time>2019-11-27T14:29:15Z</time>
      </trkpt>
      <trkpt lat="43.6458" lon="6.2722">
        <ele>1048.7</ele>
        <time>2019-11-27T14:29:28Z</time>
      </trkpt>
      <trkpt lat="43.64589" lon="6.27216">
        <ele>1047.1</ele>
        <time>2019-11-27T14:29:40Z</time>
      </trkpt>
      <trkpt lat="43.64597" lon="6.27211">
        <ele>1045.1</ele>
        <time>2019-11-27T14:29:51Z</time>
      </trkpt>
      <trkpt lat="43.64607" lon="6.27209">
        <ele>1043.2</ele>
        <time>2019-11-27T14:30:05Z</time>
      </trkpt>
      <trkpt lat="43.64616" lon="6.27208">
        <ele>1041.9</ele>
        <time>2019-11-27T14:30:22Z</time>
      </trkpt>
      <trkpt lat="43.64624" lon="6.27203">
        <ele>1040.2</ele>
        <time>2019-11-27T14:30:33Z</time>
      </trkpt>
      <trkpt lat="43.64632" lon="6.27195">
        <ele>1039</ele>
        <time>2019-11-27T14:30:44Z</time>
      </trkpt>
      <trkpt lat="43.64639" lon="6.27186">
        <ele>1037.5</ele>
        <time>2019-11-27T14:31:06Z</time>
      </trkpt>
      <trkpt lat="43.64645" lon="6.27177">
        <ele>1034.5</ele>
        <time>2019-11-27T14:31:32Z</time>
      </trkpt>
      <trkpt lat="43.64652" lon="6.27169">
        <ele>1032.7</ele>
        <time>2019-11-27T14:31:46Z</time>
      </trkpt>
      <trkpt lat="43.6466" lon="6.27162">
        <ele>1031</ele>
        <time>2019-11-27T14:32:00Z</time>
      </trkpt>
      <trkpt lat="43.64667" lon="6.27153">
        <ele>1029.7</ele>
        <time>2019-11-27T14:32:08Z</time>
      </trkpt>
      <trkpt lat="43.64674" lon="6.27144">
        <ele>1029.2</ele>
        <time>2019-11-27T14:32:16Z</time>
      </trkpt>
      <trkpt lat="43.64681" lon="6.27133">
        <ele>1029.1</ele>
        <time>2019-11-27T14:32:23Z</time>
      </trkpt>
      <trkpt lat="43.64688" lon="6.27124">
        <ele>1029.4</ele>
        <time>2019-11-27T14:32:34Z</time>
      </trkpt>
      <trkpt lat="43.64696" lon="6.27115">
        <ele>1029.9</ele>
        <time>2019-11-27T14:32:43Z</time>
      </trkpt>
      <trkpt lat="43.64702" lon="6.27106">
        <ele>1031</ele>
        <time>2019-11-27T14:32:53Z</time>
      </trkpt>
      <trkpt lat="43.64706" lon="6.27095">
        <ele>1032.1</ele>
        <time>2019-11-27T14:33:06Z</time>
      </trkpt>
      <trkpt lat="43.64713" lon="6.27088">
        <ele>1033.4</ele>
        <time>2019-11-27T14:33:18Z</time>
      </trkpt>
      <trkpt lat="43.6472" lon="6.27079">
        <ele>1034.9</ele>
        <time>2019-11-27T14:33:30Z</time>
      </trkpt>
      <trkpt lat="43.64729" lon="6.27074">
        <ele>1035.4</ele>
        <time>2019-11-27T14:33:40Z</time>
      </trkpt>
      <trkpt lat="43.64737" lon="6.2707">
        <ele>1035.1</ele>
        <time>2019-11-27T14:33:50Z</time>
      </trkpt>
      <trkpt lat="43.64747" lon="6.27067">
        <ele>1034.3</ele>
        <time>2019-11-27T14:34:01Z</time>
      </trkpt>
      <trkpt lat="43.64757" lon="6.27067">
        <ele>1032.8</ele>
        <time>2019-11-27T14:34:14Z</time>
      </trkpt>
      <trkpt lat="43.64766" lon="6.27067">
        <ele>1032.2</ele>
        <time>2019-11-27T14:34:22Z</time>
      </trkpt>
      <trkpt lat="43.64774" lon="6.27061">
        <ele>1032.1</ele>
        <time>2019-11-27T14:34:35Z</time>
      </trkpt>
      <trkpt lat="43.64782" lon="6.27054">
        <ele>1032.1</ele>
        <time>2019-11-27T14:34:45Z</time>
      </trkpt>
      <trkpt lat="43.64791" lon="6.27053">
        <ele>1031</ele>
        <time>2019-11-27T14:34:57Z</time>
      </trkpt>
      <trkpt lat="43.64798" lon="6.27045">
        <ele>1029</ele>
        <time>2019-11-27T14:35:22Z</time>
      </trkpt>
      <trkpt lat="43.64803" lon="6.27035">
        <ele>1028.8</ele>
        <time>2019-11-27T14:35:40Z</time>
      </trkpt>
      <trkpt lat="43.64811" lon="6.27027">
        <ele>1027.2</ele>
        <time>2019-11-27T14:35:55Z</time>
      </trkpt>
      <trkpt lat="43.64816" lon="6.27017">
        <ele>1026.9</ele>
        <time>2019-11-27T14:36:08Z</time>
      </trkpt>
      <trkpt lat="43.64821" lon="6.27005">
        <ele>1027.4</ele>
        <time>2019-11-27T14:36:21Z</time>
      </trkpt>
      <trkpt lat="43.64828" lon="6.26997">
        <ele>1028</ele>
        <time>2019-11-27T14:36:32Z</time>
      </trkpt>
      <trkpt lat="43.64835" lon="6.26988">
        <ele>1028</ele>
        <time>2019-11-27T14:36:44Z</time>
      </trkpt>
      <trkpt lat="43.64841" lon="6.26979">
        <ele>1027.4</ele>
        <time>2019-11-27T14:36:55Z</time>
      </trkpt>
      <trkpt lat="43.64842" lon="6.26967">
        <ele>1026.9</ele>
        <time>2019-11-27T14:37:04Z</time>
      </trkpt>
      <trkpt lat="43.64844" lon="6.26954">
        <ele>1026.8</ele>
        <time>2019-11-27T14:37:12Z</time>
      </trkpt>
      <trkpt lat="43.64852" lon="6.26946">
        <ele>1027.1</ele>
        <time>2019-11-27T14:37:21Z</time>
      </trkpt>
      <trkpt lat="43.64857" lon="6.26936">
        <ele>1027.4</ele>
        <time>2019-11-27T14:37:36Z</time>
      </trkpt>
      <trkpt lat="43.64859" lon="6.26924">
        <ele>1027.9</ele>
        <time>2019-11-27T14:37:49Z</time>
      </trkpt>
      <trkpt lat="43.64865" lon="6.26911">
        <ele>1028.2</ele>
        <time>2019-11-27T14:38:02Z</time>
      </trkpt>
      <trkpt lat="43.64868" lon="6.26898">
        <ele>1029</ele>
        <time>2019-11-27T14:38:17Z</time>
      </trkpt>
      <trkpt lat="43.64874" lon="6.26888">
        <ele>1031.9</ele>
        <time>2019-11-27T14:39:37Z</time>
      </trkpt>
      <trkpt lat="43.64877" lon="6.26876">
        <ele>1029.8</ele>
        <time>2019-11-27T14:40:14Z</time>
      </trkpt>
      <trkpt lat="43.6488" lon="6.26864">
        <ele>1028.5</ele>
        <time>2019-11-27T14:40:30Z</time>
      </trkpt>
      <trkpt lat="43.64882" lon="6.26851">
        <ele>1028</ele>
        <time>2019-11-27T14:40:44Z</time>
      </trkpt>
      <trkpt lat="43.64886" lon="6.2684">
        <ele>1028.4</ele>
        <time>2019-11-27T14:40:59Z</time>
      </trkpt>
      <trkpt lat="43.6489" lon="6.26828">
        <ele>1028.4</ele>
        <time>2019-11-27T14:41:13Z</time>
      </trkpt>
      <trkpt lat="43.64893" lon="6.26816">
        <ele>1027.8</ele>
        <time>2019-11-27T14:41:27Z</time>
      </trkpt>
      <trkpt lat="43.64899" lon="6.26806">
        <ele>1025.8</ele>
        <time>2019-11-27T14:41:43Z</time>
      </trkpt>
      <trkpt lat="43.64902" lon="6.26795">
        <ele>1023.1</ele>
        <time>2019-11-27T14:42:03Z</time>
      </trkpt>
      <trkpt lat="43.64906" lon="6.26783">
        <ele>1020.6</ele>
        <time>2019-11-27T14:42:19Z</time>
      </trkpt>
      <trkpt lat="43.64909" lon="6.26771">
        <ele>1018</ele>
        <time>2019-11-27T14:42:35Z</time>
      </trkpt>
      <trkpt lat="43.64909" lon="6.26757">
        <ele>1016.1</ele>
        <time>2019-11-27T14:42:48Z</time>
      </trkpt>
      <trkpt lat="43.64912" lon="6.26744">
        <ele>1014</ele>
        <time>2019-11-27T14:42:59Z</time>
      </trkpt>
      <trkpt lat="43.64914" lon="6.26731">
        <ele>1012.9</ele>
        <time>2019-11-27T14:43:09Z</time>
      </trkpt>
      <trkpt lat="43.64918" lon="6.26719">
        <ele>1012.2</ele>
        <time>2019-11-27T14:43:19Z</time>
      </trkpt>
      <trkpt lat="43.6492" lon="6.26707">
        <ele>1011.1</ele>
        <time>2019-11-27T14:43:30Z</time>
      </trkpt>
      <trkpt lat="43.64924" lon="6.26696">
        <ele>1009.3</ele>
        <time>2019-11-27T14:43:44Z</time>
      </trkpt>
      <trkpt lat="43.64931" lon="6.26686">
        <ele>1007.3</ele>
        <time>2019-11-27T14:43:56Z</time>
      </trkpt>
      <trkpt lat="43.64937" lon="6.26677">
        <ele>1006.5</ele>
        <time>2019-11-27T14:44:05Z</time>
      </trkpt>
      <trkpt lat="43.64941" lon="6.26665">
        <ele>1005.9</ele>
        <time>2019-11-27T14:44:16Z</time>
      </trkpt>
      <trkpt lat="43.64947" lon="6.26655">
        <ele>1005</ele>
        <time>2019-11-27T14:44:26Z</time>
      </trkpt>
      <trkpt lat="43.64951" lon="6.26643">
        <ele>1003.6</ele>
        <time>2019-11-27T14:44:38Z</time>
      </trkpt>
      <trkpt lat="43.64952" lon="6.2663">
        <ele>1003.2</ele>
        <time>2019-11-27T14:44:51Z</time>
      </trkpt>
      <trkpt lat="43.64956" lon="6.26618">
        <ele>1003.4</ele>
        <time>2019-11-27T14:45:00Z</time>
      </trkpt>
      <trkpt lat="43.6496" lon="6.26606">
        <ele>1003.4</ele>
        <time>2019-11-27T14:45:10Z</time>
      </trkpt>
      <trkpt lat="43.64965" lon="6.26594">
        <ele>1003.4</ele>
        <time>2019-11-27T14:45:17Z</time>
      </trkpt>
      <trkpt lat="43.64973" lon="6.26587">
        <ele>1003.2</ele>
        <time>2019-11-27T14:45:29Z</time>
      </trkpt>
      <trkpt lat="43.64979" lon="6.26577">
        <ele>1002</ele>
        <time>2019-11-27T14:45:45Z</time>
      </trkpt>
      <trkpt lat="43.64981" lon="6.26565">
        <ele>1001.6</ele>
        <time>2019-11-27T14:45:55Z</time>
      </trkpt>
      <trkpt lat="43.64986" lon="6.26554">
        <ele>1001.5</ele>
        <time>2019-11-27T14:46:06Z</time>
      </trkpt>
      <trkpt lat="43.64992" lon="6.26544">
        <ele>999.9</ele>
        <time>2019-11-27T14:46:23Z</time>
      </trkpt>
      <trkpt lat="43.64997" lon="6.26534">
        <ele>996.6</ele>
        <time>2019-11-27T14:46:49Z</time>
      </trkpt>
      <trkpt lat="43.64999" lon="6.26521">
        <ele>993.5</ele>
        <time>2019-11-27T14:47:07Z</time>
      </trkpt>
      <trkpt lat="43.65001" lon="6.26507">
        <ele>992.1</ele>
        <time>2019-11-27T14:47:20Z</time>
      </trkpt>
      <trkpt lat="43.65004" lon="6.26495">
        <ele>990</ele>
        <time>2019-11-27T14:47:34Z</time>
      </trkpt>
      <trkpt lat="43.65007" lon="6.26483">
        <ele>988.9</ele>
        <time>2019-11-27T14:47:48Z</time>
      </trkpt>
      <trkpt lat="43.65009" lon="6.26469">
        <ele>987.8</ele>
        <time>2019-11-27T14:47:59Z</time>
      </trkpt>
      <trkpt lat="43.65011" lon="6.26457">
        <ele>987.3</ele>
        <time>2019-11-27T14:48:06Z</time>
      </trkpt>
      <trkpt lat="43.65014" lon="6.26445">
        <ele>987.1</ele>
        <time>2019-11-27T14:48:14Z</time>
      </trkpt>
      <trkpt lat="43.65016" lon="6.26432">
        <ele>987.4</ele>
        <time>2019-11-27T14:48:24Z</time>
      </trkpt>
      <trkpt lat="43.65018" lon="6.26419">
        <ele>988</ele>
        <time>2019-11-27T14:48:35Z</time>
      </trkpt>
      <trkpt lat="43.65021" lon="6.26406">
        <ele>989.2</ele>
        <time>2019-11-27T14:48:47Z</time>
      </trkpt>
      <trkpt lat="43.65022" lon="6.26393">
        <ele>991.3</ele>
        <time>2019-11-27T14:49:03Z</time>
      </trkpt>
      <trkpt lat="43.65025" lon="6.2638">
        <ele>994.1</ele>
        <time>2019-11-27T14:49:19Z</time>
      </trkpt>
      <trkpt lat="43.65028" lon="6.26368">
        <ele>996.5</ele>
        <time>2019-11-27T14:49:33Z</time>
      </trkpt>
      <trkpt lat="43.6503" lon="6.26356">
        <ele>999.5</ele>
        <time>2019-11-27T14:51:51Z</time>
      </trkpt>
      <trkpt lat="43.65035" lon="6.26345">
        <ele>997.9</ele>
        <time>2019-11-27T14:52:18Z</time>
      </trkpt>
      <trkpt lat="43.65035" lon="6.26332">
        <ele>996.9</ele>
        <time>2019-11-27T14:52:29Z</time>
      </trkpt>
      <trkpt lat="43.65035" lon="6.26319">
        <ele>996.1</ele>
        <time>2019-11-27T14:52:46Z</time>
      </trkpt>
      <trkpt lat="43.65037" lon="6.26306">
        <ele>995.9</ele>
        <time>2019-11-27T14:52:59Z</time>
      </trkpt>
      <trkpt lat="43.65038" lon="6.26293">
        <ele>995.9</ele>
        <time>2019-11-27T14:53:10Z</time>
      </trkpt>
      <trkpt lat="43.65039" lon="6.2628">
        <ele>995.7</ele>
        <time>2019-11-27T14:53:20Z</time>
      </trkpt>
      <trkpt lat="43.65042" lon="6.26268">
        <ele>995.7</ele>
        <time>2019-11-27T14:53:33Z</time>
      </trkpt>
      <trkpt lat="43.65045" lon="6.26255">
        <ele>995.7</ele>
        <time>2019-11-27T14:53:44Z</time>
      </trkpt>
      <trkpt lat="43.65047" lon="6.26242">
        <ele>995.5</ele>
        <time>2019-11-27T14:53:55Z</time>
      </trkpt>
      <trkpt lat="43.6505" lon="6.2623">
        <ele>995</ele>
        <time>2019-11-27T14:54:09Z</time>
      </trkpt>
      <trkpt lat="43.65054" lon="6.26218">
        <ele>994.3</ele>
        <time>2019-11-27T14:54:20Z</time>
      </trkpt>
      <trkpt lat="43.65053" lon="6.26206">
        <ele>993.7</ele>
        <time>2019-11-27T14:54:33Z</time>
      </trkpt>
      <trkpt lat="43.65053" lon="6.26193">
        <ele>992.5</ele>
        <time>2019-11-27T14:54:46Z</time>
      </trkpt>
      <trkpt lat="43.65055" lon="6.26179">
        <ele>991.5</ele>
        <time>2019-11-27T14:54:57Z</time>
      </trkpt>
      <trkpt lat="43.65054" lon="6.26167">
        <ele>989.8</ele>
        <time>2019-11-27T14:55:10Z</time>
      </trkpt>
      <trkpt lat="43.65057" lon="6.26155">
        <ele>987.9</ele>
        <time>2019-11-27T14:55:24Z</time>
      </trkpt>
      <trkpt lat="43.65061" lon="6.26143">
        <ele>984.4</ele>
        <time>2019-11-27T14:55:45Z</time>
      </trkpt>
      <trkpt lat="43.65066" lon="6.26131">
        <ele>982.6</ele>
        <time>2019-11-27T14:55:56Z</time>
      </trkpt>
      <trkpt lat="43.6507" lon="6.2612">
        <ele>980.8</ele>
        <time>2019-11-27T14:56:08Z</time>
      </trkpt>
      <trkpt lat="43.65074" lon="6.26109">
        <ele>979.3</ele>
        <time>2019-11-27T14:56:20Z</time>
      </trkpt>
      <trkpt lat="43.65079" lon="6.26098">
        <ele>977.8</ele>
        <time>2019-11-27T14:56:33Z</time>
      </trkpt>
      <trkpt lat="43.65084" lon="6.26087">
        <ele>976.2</ele>
        <time>2019-11-27T14:56:45Z</time>
      </trkpt>
      <trkpt lat="43.65088" lon="6.26075">
        <ele>974.8</ele>
        <time>2019-11-27T14:56:57Z</time>
      </trkpt>
      <trkpt lat="43.65095" lon="6.26066">
        <ele>974.2</ele>
        <time>2019-11-27T14:57:08Z</time>
      </trkpt>
      <trkpt lat="43.65097" lon="6.26053">
        <ele>973.6</ele>
        <time>2019-11-27T14:57:18Z</time>
      </trkpt>
      <trkpt lat="43.651" lon="6.26041">
        <ele>973.2</ele>
        <time>2019-11-27T14:57:30Z</time>
      </trkpt>
      <trkpt lat="43.65101" lon="6.26029">
        <ele>973</ele>
        <time>2019-11-27T14:57:41Z</time>
      </trkpt>
      <trkpt lat="43.65101" lon="6.26016">
        <ele>973</ele>
        <time>2019-11-27T14:57:51Z</time>
      </trkpt>
      <trkpt lat="43.65103" lon="6.26004">
        <ele>973.2</ele>
        <time>2019-11-27T14:58:02Z</time>
      </trkpt>
      <trkpt lat="43.65104" lon="6.2599">
        <ele>973.5</ele>
        <time>2019-11-27T14:58:12Z</time>
      </trkpt>
      <trkpt lat="43.6511" lon="6.2598">
        <ele>974.2</ele>
        <time>2019-11-27T14:58:22Z</time>
      </trkpt>
      <trkpt lat="43.65114" lon="6.25967">
        <ele>974.9</ele>
        <time>2019-11-27T14:58:34Z</time>
      </trkpt>
      <trkpt lat="43.6512" lon="6.25957">
        <ele>975.2</ele>
        <time>2019-11-27T14:58:46Z</time>
      </trkpt>
      <trkpt lat="43.65123" lon="6.25945">
        <ele>975.1</ele>
        <time>2019-11-27T14:59:00Z</time>
      </trkpt>
      <trkpt lat="43.65123" lon="6.25932">
        <ele>974.1</ele>
        <time>2019-11-27T14:59:12Z</time>
      </trkpt>
      <trkpt lat="43.65123" lon="6.25919">
        <ele>973.4</ele>
        <time>2019-11-27T14:59:23Z</time>
      </trkpt>
      <trkpt lat="43.65128" lon="6.25908">
        <ele>972.4</ele>
        <time>2019-11-27T14:59:36Z</time>
      </trkpt>
      <trkpt lat="43.65129" lon="6.25895">
        <ele>971.6</ele>
        <time>2019-11-27T14:59:49Z</time>
      </trkpt>
      <trkpt lat="43.65132" lon="6.25883">
        <ele>970.2</ele>
        <time>2019-11-27T15:00:12Z</time>
      </trkpt>
      <trkpt lat="43.65134" lon="6.25871">
        <ele>967.6</ele>
        <time>2019-11-27T15:00:56Z</time>
      </trkpt>
      <trkpt lat="43.65132" lon="6.25858">
        <ele>966.9</ele>
        <time>2019-11-27T15:01:12Z</time>
      </trkpt>
      <trkpt lat="43.6513" lon="6.25846">
        <ele>965.8</ele>
        <time>2019-11-27T15:01:22Z</time>
      </trkpt>
      <trkpt lat="43.65131" lon="6.25833">
        <ele>964.7</ele>
        <time>2019-11-27T15:01:31Z</time>
      </trkpt>
      <trkpt lat="43.65134" lon="6.25821">
        <ele>963.9</ele>
        <time>2019-11-27T15:01:41Z</time>
      </trkpt>
      <trkpt lat="43.65129" lon="6.25809">
        <ele>963.4</ele>
        <time>2019-11-27T15:01:52Z</time>
      </trkpt>
      <trkpt lat="43.65125" lon="6.25798">
        <ele>963</ele>
        <time>2019-11-27T15:02:03Z</time>
      </trkpt>
      <trkpt lat="43.65122" lon="6.25784">
        <ele>963.1</ele>
        <time>2019-11-27T15:02:14Z</time>
      </trkpt>
      <trkpt lat="43.6512" lon="6.25772">
        <ele>963.6</ele>
        <time>2019-11-27T15:02:25Z</time>
      </trkpt>
      <trkpt lat="43.65119" lon="6.25759">
        <ele>965</ele>
        <time>2019-11-27T15:02:38Z</time>
      </trkpt>
      <trkpt lat="43.65117" lon="6.25746">
        <ele>966.2</ele>
        <time>2019-11-27T15:02:49Z</time>
      </trkpt>
      <trkpt lat="43.65116" lon="6.25733">
        <ele>967.1</ele>
        <time>2019-11-27T15:03:00Z</time>
      </trkpt>
      <trkpt lat="43.65117" lon="6.2572">
        <ele>968</ele>
        <time>2019-11-27T15:03:10Z</time>
      </trkpt>
      <trkpt lat="43.65112" lon="6.25709">
        <ele>969</ele>
        <time>2019-11-27T15:03:21Z</time>
      </trkpt>
      <trkpt lat="43.65107" lon="6.25699">
        <ele>969.5</ele>
        <time>2019-11-27T15:03:33Z</time>
      </trkpt>
      <trkpt lat="43.651" lon="6.25689">
        <ele>969.5</ele>
        <time>2019-11-27T15:03:44Z</time>
      </trkpt>
      <trkpt lat="43.65097" lon="6.25677">
        <ele>969.2</ele>
        <time>2019-11-27T15:04:02Z</time>
      </trkpt>
      <trkpt lat="43.65103" lon="6.25667">
        <ele>967.9</ele>
        <time>2019-11-27T15:04:14Z</time>
      </trkpt>
      <trkpt lat="43.65111" lon="6.2566">
        <ele>966.7</ele>
        <time>2019-11-27T15:04:25Z</time>
      </trkpt>
      <trkpt lat="43.65118" lon="6.25651">
        <ele>965.3</ele>
        <time>2019-11-27T15:04:36Z</time>
      </trkpt>
      <trkpt lat="43.65123" lon="6.2564">
        <ele>964.2</ele>
        <time>2019-11-27T15:04:50Z</time>
      </trkpt>
      <trkpt lat="43.65129" lon="6.25629">
        <ele>963.6</ele>
        <time>2019-11-27T15:04:59Z</time>
      </trkpt>
      <trkpt lat="43.65128" lon="6.25616">
        <ele>962.5</ele>
        <time>2019-11-27T15:05:09Z</time>
      </trkpt>
      <trkpt lat="43.65133" lon="6.25605">
        <ele>961.7</ele>
        <time>2019-11-27T15:05:21Z</time>
      </trkpt>
      <trkpt lat="43.65139" lon="6.25595">
        <ele>960</ele>
        <time>2019-11-27T15:05:34Z</time>
      </trkpt>
      <trkpt lat="43.65148" lon="6.25592">
        <ele>958.8</ele>
        <time>2019-11-27T15:05:48Z</time>
      </trkpt>
      <trkpt lat="43.65156" lon="6.25584">
        <ele>958.2</ele>
        <time>2019-11-27T15:05:57Z</time>
      </trkpt>
      <trkpt lat="43.65163" lon="6.25576">
        <ele>957.1</ele>
        <time>2019-11-27T15:06:08Z</time>
      </trkpt>
      <trkpt lat="43.65172" lon="6.25576">
        <ele>956.1</ele>
        <time>2019-11-27T15:06:20Z</time>
      </trkpt>
      <trkpt lat="43.65182" lon="6.25575">
        <ele>955.6</ele>
        <time>2019-11-27T15:06:30Z</time>
      </trkpt>
      <trkpt lat="43.6519" lon="6.25571">
        <ele>955</ele>
        <time>2019-11-27T15:06:44Z</time>
      </trkpt>
      <trkpt lat="43.65199" lon="6.2557">
        <ele>954.2</ele>
        <time>2019-11-27T15:06:58Z</time>
      </trkpt>
      <trkpt lat="43.65205" lon="6.2556">
        <ele>953.4</ele>
        <time>2019-11-27T15:07:08Z</time>
      </trkpt>
      <trkpt lat="43.65209" lon="6.25548">
        <ele>952.3</ele>
        <time>2019-11-27T15:07:21Z</time>
      </trkpt>
      <trkpt lat="43.65216" lon="6.2554">
        <ele>951.5</ele>
        <time>2019-11-27T15:07:35Z</time>
      </trkpt>
      <trkpt lat="43.65222" lon="6.25531">
        <ele>950.9</ele>
        <time>2019-11-27T15:07:45Z</time>
      </trkpt>
      <trkpt lat="43.65227" lon="6.25519">
        <ele>949.9</ele>
        <time>2019-11-27T15:07:58Z</time>
      </trkpt>
      <trkpt lat="43.65235" lon="6.2551">
        <ele>949.7</ele>
        <time>2019-11-27T15:08:05Z</time>
      </trkpt>
      <trkpt lat="43.65244" lon="6.25504">
        <ele>949.6</ele>
        <time>2019-11-27T15:08:13Z</time>
      </trkpt>
      <trkpt lat="43.65253" lon="6.25503">
        <ele>949.8</ele>
        <time>2019-11-27T15:08:24Z</time>
      </trkpt>
      <trkpt lat="43.6526" lon="6.25496">
        <ele>950.3</ele>
        <time>2019-11-27T15:08:35Z</time>
      </trkpt>
      <trkpt lat="43.65266" lon="6.25486">
        <ele>950.5</ele>
        <time>2019-11-27T15:08:50Z</time>
      </trkpt>
      <trkpt lat="43.65274" lon="6.25476">
        <ele>950.2</ele>
        <time>2019-11-27T15:08:58Z</time>
      </trkpt>
      <trkpt lat="43.65281" lon="6.25469">
        <ele>950</ele>
        <time>2019-11-27T15:09:09Z</time>
      </trkpt>
      <trkpt lat="43.6529" lon="6.25462">
        <ele>949.9</ele>
        <time>2019-11-27T15:09:18Z</time>
      </trkpt>
      <trkpt lat="43.65298" lon="6.25457">
        <ele>949.9</ele>
        <time>2019-11-27T15:09:27Z</time>
      </trkpt>
      <trkpt lat="43.65306" lon="6.2545">
        <ele>950</ele>
        <time>2019-11-27T15:09:42Z</time>
      </trkpt>
      <trkpt lat="43.65315" lon="6.25445">
        <ele>950</ele>
        <time>2019-11-27T15:09:52Z</time>
      </trkpt>
      <trkpt lat="43.6532" lon="6.25433">
        <ele>950.2</ele>
        <time>2019-11-27T15:10:00Z</time>
      </trkpt>
      <trkpt lat="43.65323" lon="6.2542">
        <ele>950.3</ele>
        <time>2019-11-27T15:10:08Z</time>
      </trkpt>
      <trkpt lat="43.65324" lon="6.25408">
        <ele>950.4</ele>
        <time>2019-11-27T15:10:17Z</time>
      </trkpt>
      <trkpt lat="43.65325" lon="6.25395">
        <ele>950.4</ele>
        <time>2019-11-27T15:10:26Z</time>
      </trkpt>
      <trkpt lat="43.65327" lon="6.25382">
        <ele>950.5</ele>
        <time>2019-11-27T15:10:35Z</time>
      </trkpt>
      <trkpt lat="43.65329" lon="6.2537">
        <ele>950.9</ele>
        <time>2019-11-27T15:10:46Z</time>
      </trkpt>
      <trkpt lat="43.65328" lon="6.25358">
        <ele>951.5</ele>
        <time>2019-11-27T15:10:56Z</time>
      </trkpt>
      <trkpt lat="43.65326" lon="6.25345">
        <ele>952.2</ele>
        <time>2019-11-27T15:11:08Z</time>
      </trkpt>
      <trkpt lat="43.6533" lon="6.25332">
        <ele>953.6</ele>
        <time>2019-11-27T15:11:23Z</time>
      </trkpt>
      <trkpt lat="43.65336" lon="6.25323">
        <ele>955.5</ele>
        <time>2019-11-27T15:11:37Z</time>
      </trkpt>
      <trkpt lat="43.6534" lon="6.25312">
        <ele>956.9</ele>
        <time>2019-11-27T15:11:51Z</time>
      </trkpt>
      <trkpt lat="43.65344" lon="6.253">
        <ele>958.9</ele>
        <time>2019-11-27T15:12:09Z</time>
      </trkpt>
      <trkpt lat="43.65347" lon="6.25288">
        <ele>960.8</ele>
        <time>2019-11-27T15:12:24Z</time>
      </trkpt>
      <trkpt lat="43.65351" lon="6.25276">
        <ele>962.6</ele>
        <time>2019-11-27T15:12:39Z</time>
      </trkpt>
      <trkpt lat="43.65353" lon="6.25264">
        <ele>964.1</ele>
        <time>2019-11-27T15:12:52Z</time>
      </trkpt>
      <trkpt lat="43.65353" lon="6.25251">
        <ele>965.8</ele>
        <time>2019-11-27T15:13:06Z</time>
      </trkpt>
      <trkpt lat="43.65354" lon="6.25238">
        <ele>967.4</ele>
        <time>2019-11-27T15:13:17Z</time>
      </trkpt>
      <trkpt lat="43.65355" lon="6.25226">
        <ele>969.1</ele>
        <time>2019-11-27T15:13:31Z</time>
      </trkpt>
      <trkpt lat="43.65359" lon="6.25214">
        <ele>970.2</ele>
        <time>2019-11-27T15:13:42Z</time>
      </trkpt>
      <trkpt lat="43.65366" lon="6.25204">
        <ele>971.2</ele>
        <time>2019-11-27T15:13:54Z</time>
      </trkpt>
      <trkpt lat="43.65373" lon="6.25195">
        <ele>972.5</ele>
        <time>2019-11-27T15:14:05Z</time>
      </trkpt>
      <trkpt lat="43.65378" lon="6.25184">
        <ele>973</ele>
        <time>2019-11-27T15:14:13Z</time>
      </trkpt>
      <trkpt lat="43.65379" lon="6.25171">
        <ele>973.3</ele>
        <time>2019-11-27T15:14:24Z</time>
      </trkpt>
      <trkpt lat="43.65379" lon="6.25158">
        <ele>973.4</ele>
        <time>2019-11-27T15:14:30Z</time>
      </trkpt>
      <trkpt lat="43.65377" lon="6.25145">
        <ele>973.6</ele>
        <time>2019-11-27T15:14:39Z</time>
      </trkpt>
      <trkpt lat="43.65373" lon="6.25133">
        <ele>974.4</ele>
        <time>2019-11-27T15:14:49Z</time>
      </trkpt>
      <trkpt lat="43.65369" lon="6.25122">
        <ele>975.2</ele>
        <time>2019-11-27T15:14:59Z</time>
      </trkpt>
      <trkpt lat="43.65366" lon="6.2511">
        <ele>975.6</ele>
        <time>2019-11-27T15:15:11Z</time>
      </trkpt>
      <trkpt lat="43.65366" lon="6.25097">
        <ele>976.2</ele>
        <time>2019-11-27T15:15:24Z</time>
      </trkpt>
      <trkpt lat="43.65365" lon="6.25084">
        <ele>976.9</ele>
        <time>2019-11-27T15:15:38Z</time>
      </trkpt>
      <trkpt lat="43.65367" lon="6.25071">
        <ele>978.2</ele>
        <time>2019-11-27T15:15:50Z</time>
      </trkpt>
      <trkpt lat="43.65368" lon="6.25058">
        <ele>979.5</ele>
        <time>2019-11-27T15:16:04Z</time>
      </trkpt>
      <trkpt lat="43.65369" lon="6.25046">
        <ele>980.7</ele>
        <time>2019-11-27T15:16:16Z</time>
      </trkpt>
      <trkpt lat="43.65368" lon="6.25034">
        <ele>982</ele>
        <time>2019-11-27T15:16:31Z</time>
      </trkpt>
      <trkpt lat="43.65363" lon="6.25023">
        <ele>984.3</ele>
        <time>2019-11-27T15:17:06Z</time>
      </trkpt>
      <trkpt lat="43.65363" lon="6.25009">
        <ele>984.8</ele>
        <time>2019-11-27T15:17:23Z</time>
      </trkpt>
      <trkpt lat="43.65361" lon="6.24997">
        <ele>985.6</ele>
        <time>2019-11-27T15:17:34Z</time>
      </trkpt>
      <trkpt lat="43.65357" lon="6.24986">
        <ele>986.8</ele>
        <time>2019-11-27T15:17:49Z</time>
      </trkpt>
      <trkpt lat="43.65357" lon="6.24972">
        <ele>987.3</ele>
        <time>2019-11-27T15:18:05Z</time>
      </trkpt>
      <trkpt lat="43.65356" lon="6.2496">
        <ele>988.7</ele>
        <time>2019-11-27T15:18:27Z</time>
      </trkpt>
      <trkpt lat="43.65354" lon="6.24973">
        <ele>986.8</ele>
        <time>2019-11-27T15:27:12Z</time>
      </trkpt>
      <trkpt lat="43.65357" lon="6.24985">
        <ele>986.3</ele>
        <time>2019-11-27T15:27:24Z</time>
      </trkpt>
      <trkpt lat="43.65359" lon="6.24998">
        <ele>985.4</ele>
        <time>2019-11-27T15:27:39Z</time>
      </trkpt>
      <trkpt lat="43.65361" lon="6.2501">
        <ele>984</ele>
        <time>2019-11-27T15:28:02Z</time>
      </trkpt>
      <trkpt lat="43.65365" lon="6.25022">
        <ele>982.7</ele>
        <time>2019-11-27T15:28:23Z</time>
      </trkpt>
      <trkpt lat="43.65367" lon="6.25035">
        <ele>980.8</ele>
        <time>2019-11-27T15:28:40Z</time>
      </trkpt>
      <trkpt lat="43.65365" lon="6.25047">
        <ele>980.1</ele>
        <time>2019-11-27T15:28:48Z</time>
      </trkpt>
      <trkpt lat="43.65363" lon="6.2506">
        <ele>979.3</ele>
        <time>2019-11-27T15:28:58Z</time>
      </trkpt>
      <trkpt lat="43.65362" lon="6.25073">
        <ele>977.8</ele>
        <time>2019-11-27T15:29:10Z</time>
      </trkpt>
      <trkpt lat="43.65364" lon="6.25086">
        <ele>977.2</ele>
        <time>2019-11-27T15:29:19Z</time>
      </trkpt>
      <trkpt lat="43.65366" lon="6.251">
        <ele>976.3</ele>
        <time>2019-11-27T15:29:27Z</time>
      </trkpt>
      <trkpt lat="43.65369" lon="6.25112">
        <ele>975.3</ele>
        <time>2019-11-27T15:29:36Z</time>
      </trkpt>
      <trkpt lat="43.65372" lon="6.25124">
        <ele>974.6</ele>
        <time>2019-11-27T15:29:45Z</time>
      </trkpt>
      <trkpt lat="43.65375" lon="6.25136">
        <ele>973.9</ele>
        <time>2019-11-27T15:29:54Z</time>
      </trkpt>
      <trkpt lat="43.65377" lon="6.25149">
        <ele>972.8</ele>
        <time>2019-11-27T15:30:03Z</time>
      </trkpt>
      <trkpt lat="43.65377" lon="6.25162">
        <ele>971.7</ele>
        <time>2019-11-27T15:30:17Z</time>
      </trkpt>
      <trkpt lat="43.65374" lon="6.25174">
        <ele>971.4</ele>
        <time>2019-11-27T15:30:28Z</time>
      </trkpt>
      <trkpt lat="43.65367" lon="6.25184">
        <ele>971.5</ele>
        <time>2019-11-27T15:30:36Z</time>
      </trkpt>
      <trkpt lat="43.65363" lon="6.25196">
        <ele>971.3</ele>
        <time>2019-11-27T15:30:48Z</time>
      </trkpt>
      <trkpt lat="43.65362" lon="6.25209">
        <ele>970.8</ele>
        <time>2019-11-27T15:30:56Z</time>
      </trkpt>
      <trkpt lat="43.6536" lon="6.25222">
        <ele>969.7</ele>
        <time>2019-11-27T15:31:07Z</time>
      </trkpt>
      <trkpt lat="43.65357" lon="6.25234">
        <ele>968</ele>
        <time>2019-11-27T15:31:22Z</time>
      </trkpt>
      <trkpt lat="43.65351" lon="6.25243">
        <ele>967.3</ele>
        <time>2019-11-27T15:31:36Z</time>
      </trkpt>
      <trkpt lat="43.65347" lon="6.25255">
        <ele>966.7</ele>
        <time>2019-11-27T15:31:49Z</time>
      </trkpt>
      <trkpt lat="43.65345" lon="6.25268">
        <ele>965.3</ele>
        <time>2019-11-27T15:32:01Z</time>
      </trkpt>
      <trkpt lat="43.65343" lon="6.2528">
        <ele>962.3</ele>
        <time>2019-11-27T15:32:18Z</time>
      </trkpt>
      <trkpt lat="43.6534" lon="6.25292">
        <ele>960</ele>
        <time>2019-11-27T15:32:30Z</time>
      </trkpt>
      <trkpt lat="43.65336" lon="6.25305">
        <ele>958.7</ele>
        <time>2019-11-27T15:32:42Z</time>
      </trkpt>
      <trkpt lat="43.65331" lon="6.25314">
        <ele>957.6</ele>
        <time>2019-11-27T15:32:52Z</time>
      </trkpt>
      <trkpt lat="43.65327" lon="6.25326">
        <ele>956.1</ele>
        <time>2019-11-27T15:33:04Z</time>
      </trkpt>
      <trkpt lat="43.65328" lon="6.25339">
        <ele>954.8</ele>
        <time>2019-11-27T15:33:13Z</time>
      </trkpt>
      <trkpt lat="43.65327" lon="6.25351">
        <ele>953.6</ele>
        <time>2019-11-27T15:33:21Z</time>
      </trkpt>
      <trkpt lat="43.65326" lon="6.25364">
        <ele>952.3</ele>
        <time>2019-11-27T15:33:31Z</time>
      </trkpt>
      <trkpt lat="43.65324" lon="6.25377">
        <ele>951.6</ele>
        <time>2019-11-27T15:33:40Z</time>
      </trkpt>
      <trkpt lat="43.65322" lon="6.25389">
        <ele>950.5</ele>
        <time>2019-11-27T15:33:51Z</time>
      </trkpt>
      <trkpt lat="43.6532" lon="6.25403">
        <ele>949.8</ele>
        <time>2019-11-27T15:34:01Z</time>
      </trkpt>
      <trkpt lat="43.65319" lon="6.25415">
        <ele>949.1</ele>
        <time>2019-11-27T15:34:09Z</time>
      </trkpt>
      <trkpt lat="43.65317" lon="6.25428">
        <ele>948.6</ele>
        <time>2019-11-27T15:34:18Z</time>
      </trkpt>
      <trkpt lat="43.65318" lon="6.25441">
        <ele>948</ele>
        <time>2019-11-27T15:34:26Z</time>
      </trkpt>
      <trkpt lat="43.65316" lon="6.25454">
        <ele>946.9</ele>
        <time>2019-11-27T15:34:51Z</time>
      </trkpt>
      <trkpt lat="43.65316" lon="6.25466">
        <ele>946.1</ele>
        <time>2019-11-27T15:35:26Z</time>
      </trkpt>
      <trkpt lat="43.65317" lon="6.25479">
        <ele>945.8</ele>
        <time>2019-11-27T15:35:42Z</time>
      </trkpt>
      <trkpt lat="43.65316" lon="6.25492">
        <ele>945.5</ele>
        <time>2019-11-27T15:35:55Z</time>
      </trkpt>
      <trkpt lat="43.65314" lon="6.25506">
        <ele>945.2</ele>
        <time>2019-11-27T15:36:06Z</time>
      </trkpt>
      <trkpt lat="43.65313" lon="6.25519">
        <ele>945</ele>
        <time>2019-11-27T15:36:15Z</time>
      </trkpt>
      <trkpt lat="43.65312" lon="6.25531">
        <ele>944.8</ele>
        <time>2019-11-27T15:36:23Z</time>
      </trkpt>
      <trkpt lat="43.6531" lon="6.25544">
        <ele>944.4</ele>
        <time>2019-11-27T15:36:32Z</time>
      </trkpt>
      <trkpt lat="43.65308" lon="6.25557">
        <ele>943.5</ele>
        <time>2019-11-27T15:36:40Z</time>
      </trkpt>
      <trkpt lat="43.65306" lon="6.2557">
        <ele>942.6</ele>
        <time>2019-11-27T15:36:49Z</time>
      </trkpt>
      <trkpt lat="43.65301" lon="6.25581">
        <ele>941.6</ele>
        <time>2019-11-27T15:36:58Z</time>
      </trkpt>
      <trkpt lat="43.65296" lon="6.25593">
        <ele>940.6</ele>
        <time>2019-11-27T15:37:08Z</time>
      </trkpt>
      <trkpt lat="43.65293" lon="6.25606">
        <ele>940</ele>
        <time>2019-11-27T15:37:18Z</time>
      </trkpt>
      <trkpt lat="43.65292" lon="6.25618">
        <ele>939.4</ele>
        <time>2019-11-27T15:37:28Z</time>
      </trkpt>
      <trkpt lat="43.65289" lon="6.25631">
        <ele>938.9</ele>
        <time>2019-11-27T15:37:39Z</time>
      </trkpt>
      <trkpt lat="43.65294" lon="6.25642">
        <ele>938.3</ele>
        <time>2019-11-27T15:37:47Z</time>
      </trkpt>
      <trkpt lat="43.65298" lon="6.25653">
        <ele>937.7</ele>
        <time>2019-11-27T15:37:55Z</time>
      </trkpt>
      <trkpt lat="43.65302" lon="6.25665">
        <ele>937</ele>
        <time>2019-11-27T15:38:03Z</time>
      </trkpt>
      <trkpt lat="43.65304" lon="6.25678">
        <ele>935.9</ele>
        <time>2019-11-27T15:38:13Z</time>
      </trkpt>
      <trkpt lat="43.65306" lon="6.2569">
        <ele>934.9</ele>
        <time>2019-11-27T15:38:21Z</time>
      </trkpt>
      <trkpt lat="43.65307" lon="6.25703">
        <ele>933.6</ele>
        <time>2019-11-27T15:38:30Z</time>
      </trkpt>
      <trkpt lat="43.65306" lon="6.25716">
        <ele>931</ele>
        <time>2019-11-27T15:38:44Z</time>
      </trkpt>
      <trkpt lat="43.65303" lon="6.25729">
        <ele>928.8</ele>
        <time>2019-11-27T15:38:55Z</time>
      </trkpt>
      <trkpt lat="43.65296" lon="6.25739">
        <ele>926.3</ele>
        <time>2019-11-27T15:39:07Z</time>
      </trkpt>
      <trkpt lat="43.6529" lon="6.25748">
        <ele>924.5</ele>
        <time>2019-11-27T15:39:18Z</time>
      </trkpt>
      <trkpt lat="43.65282" lon="6.25756">
        <ele>923.1</ele>
        <time>2019-11-27T15:39:28Z</time>
      </trkpt>
      <trkpt lat="43.65275" lon="6.25763">
        <ele>921.7</ele>
        <time>2019-11-27T15:39:39Z</time>
      </trkpt>
      <trkpt lat="43.65268" lon="6.25772">
        <ele>920.2</ele>
        <time>2019-11-27T15:39:48Z</time>
      </trkpt>
      <trkpt lat="43.65259" lon="6.25779">
        <ele>918.4</ele>
        <time>2019-11-27T15:39:57Z</time>
      </trkpt>
      <trkpt lat="43.65253" lon="6.25788">
        <ele>916.4</ele>
        <time>2019-11-27T15:40:07Z</time>
      </trkpt>
      <trkpt lat="43.65248" lon="6.25799">
        <ele>914.3</ele>
        <time>2019-11-27T15:40:20Z</time>
      </trkpt>
      <trkpt lat="43.65247" lon="6.25813">
        <ele>912.3</ele>
        <time>2019-11-27T15:40:33Z</time>
      </trkpt>
      <trkpt lat="43.65249" lon="6.25825">
        <ele>909.7</ele>
        <time>2019-11-27T15:40:47Z</time>
      </trkpt>
      <trkpt lat="43.65256" lon="6.25835">
        <ele>908.2</ele>
        <time>2019-11-27T15:40:58Z</time>
      </trkpt>
      <trkpt lat="43.65261" lon="6.25846">
        <ele>907.5</ele>
        <time>2019-11-27T15:41:07Z</time>
      </trkpt>
      <trkpt lat="43.65266" lon="6.25858">
        <ele>906.9</ele>
        <time>2019-11-27T15:41:15Z</time>
      </trkpt>
      <trkpt lat="43.65272" lon="6.25868">
        <ele>906.2</ele>
        <time>2019-11-27T15:41:22Z</time>
      </trkpt>
      <trkpt lat="43.65278" lon="6.25878">
        <ele>905.7</ele>
        <time>2019-11-27T15:41:30Z</time>
      </trkpt>
      <trkpt lat="43.65286" lon="6.25886">
        <ele>905.4</ele>
        <time>2019-11-27T15:41:38Z</time>
      </trkpt>
      <trkpt lat="43.65293" lon="6.25894">
        <ele>905.2</ele>
        <time>2019-11-27T15:41:45Z</time>
      </trkpt>
      <trkpt lat="43.65302" lon="6.259">
        <ele>904.9</ele>
        <time>2019-11-27T15:41:54Z</time>
      </trkpt>
      <trkpt lat="43.6531" lon="6.25908">
        <ele>904.6</ele>
        <time>2019-11-27T15:42:03Z</time>
      </trkpt>
      <trkpt lat="43.65317" lon="6.25917">
        <ele>904</ele>
        <time>2019-11-27T15:42:11Z</time>
      </trkpt>
      <trkpt lat="43.65324" lon="6.25925">
        <ele>903.2</ele>
        <time>2019-11-27T15:42:20Z</time>
      </trkpt>
      <trkpt lat="43.65332" lon="6.25933">
        <ele>902.5</ele>
        <time>2019-11-27T15:42:29Z</time>
      </trkpt>
      <trkpt lat="43.65339" lon="6.25943">
        <ele>902</ele>
        <time>2019-11-27T15:42:37Z</time>
      </trkpt>
      <trkpt lat="43.65346" lon="6.25951">
        <ele>901.8</ele>
        <time>2019-11-27T15:42:45Z</time>
      </trkpt>
      <trkpt lat="43.65354" lon="6.2596">
        <ele>901.9</ele>
        <time>2019-11-27T15:42:53Z</time>
      </trkpt>
      <trkpt lat="43.65361" lon="6.25968">
        <ele>901.9</ele>
        <time>2019-11-27T15:43:01Z</time>
      </trkpt>
      <trkpt lat="43.65369" lon="6.25975">
        <ele>902</ele>
        <time>2019-11-27T15:43:10Z</time>
      </trkpt>
      <trkpt lat="43.65377" lon="6.25984">
        <ele>902</ele>
        <time>2019-11-27T15:43:19Z</time>
      </trkpt>
      <trkpt lat="43.65384" lon="6.25992">
        <ele>902.1</ele>
        <time>2019-11-27T15:43:27Z</time>
      </trkpt>
      <trkpt lat="43.65392" lon="6.26">
        <ele>902.3</ele>
        <time>2019-11-27T15:43:37Z</time>
      </trkpt>
      <trkpt lat="43.65398" lon="6.2601">
        <ele>901.6</ele>
        <time>2019-11-27T15:43:47Z</time>
      </trkpt>
      <trkpt lat="43.65403" lon="6.26021">
        <ele>900.6</ele>
        <time>2019-11-27T15:43:57Z</time>
      </trkpt>
      <trkpt lat="43.65408" lon="6.26033">
        <ele>899.1</ele>
        <time>2019-11-27T15:44:10Z</time>
      </trkpt>
      <trkpt lat="43.6541" lon="6.26045">
        <ele>897.5</ele>
        <time>2019-11-27T15:44:20Z</time>
      </trkpt>
      <trkpt lat="43.65412" lon="6.26058">
        <ele>896.3</ele>
        <time>2019-11-27T15:44:27Z</time>
      </trkpt>
      <trkpt lat="43.65412" lon="6.26071">
        <ele>894.7</ele>
        <time>2019-11-27T15:44:36Z</time>
      </trkpt>
      <trkpt lat="43.65409" lon="6.26084">
        <ele>892.3</ele>
        <time>2019-11-27T15:44:47Z</time>
      </trkpt>
      <trkpt lat="43.65406" lon="6.26096">
        <ele>891.2</ele>
        <time>2019-11-27T15:44:56Z</time>
      </trkpt>
      <trkpt lat="43.65402" lon="6.26108">
        <ele>889.3</ele>
        <time>2019-11-27T15:45:07Z</time>
      </trkpt>
      <trkpt lat="43.65397" lon="6.26119">
        <ele>887</ele>
        <time>2019-11-27T15:45:19Z</time>
      </trkpt>
      <trkpt lat="43.65394" lon="6.26132">
        <ele>884.2</ele>
        <time>2019-11-27T15:45:31Z</time>
      </trkpt>
      <trkpt lat="43.65396" lon="6.26145">
        <ele>882</ele>
        <time>2019-11-27T15:45:40Z</time>
      </trkpt>
      <trkpt lat="43.65401" lon="6.26156">
        <ele>879.7</ele>
        <time>2019-11-27T15:45:50Z</time>
      </trkpt>
      <trkpt lat="43.65407" lon="6.26166">
        <ele>877.6</ele>
        <time>2019-11-27T15:46:00Z</time>
      </trkpt>
      <trkpt lat="43.65414" lon="6.26174">
        <ele>875.5</ele>
        <time>2019-11-27T15:46:10Z</time>
      </trkpt>
      <trkpt lat="43.6542" lon="6.26185">
        <ele>873.3</ele>
        <time>2019-11-27T15:46:21Z</time>
      </trkpt>
      <trkpt lat="43.6542" lon="6.26198">
        <ele>870.6</ele>
        <time>2019-11-27T15:46:34Z</time>
      </trkpt>
      <trkpt lat="43.65419" lon="6.26211">
        <ele>868.1</ele>
        <time>2019-11-27T15:46:46Z</time>
      </trkpt>
      <trkpt lat="43.65418" lon="6.26224">
        <ele>865.6</ele>
        <time>2019-11-27T15:46:58Z</time>
      </trkpt>
      <trkpt lat="43.6542" lon="6.26237">
        <ele>861.8</ele>
        <time>2019-11-27T15:47:14Z</time>
      </trkpt>
      <trkpt lat="43.65424" lon="6.26249">
        <ele>859.7</ele>
        <time>2019-11-27T15:47:26Z</time>
      </trkpt>
      <trkpt lat="43.65423" lon="6.26262">
        <ele>857.8</ele>
        <time>2019-11-27T15:47:37Z</time>
      </trkpt>
      <trkpt lat="43.65421" lon="6.26275">
        <ele>855.6</ele>
        <time>2019-11-27T15:47:48Z</time>
      </trkpt>
      <trkpt lat="43.65424" lon="6.26288">
        <ele>854.8</ele>
        <time>2019-11-27T15:47:55Z</time>
      </trkpt>
      <trkpt lat="43.65429" lon="6.263">
        <ele>854.4</ele>
        <time>2019-11-27T15:48:01Z</time>
      </trkpt>
      <trkpt lat="43.65435" lon="6.2631">
        <ele>854.1</ele>
        <time>2019-11-27T15:48:08Z</time>
      </trkpt>
      <trkpt lat="43.65442" lon="6.2632">
        <ele>853.9</ele>
        <time>2019-11-27T15:48:15Z</time>
      </trkpt>
      <trkpt lat="43.65449" lon="6.26329">
        <ele>853.2</ele>
        <time>2019-11-27T15:48:24Z</time>
      </trkpt>
      <trkpt lat="43.65457" lon="6.26337">
        <ele>852.3</ele>
        <time>2019-11-27T15:48:33Z</time>
      </trkpt>
      <trkpt lat="43.65466" lon="6.26341">
        <ele>851.2</ele>
        <time>2019-11-27T15:48:43Z</time>
      </trkpt>
      <trkpt lat="43.65474" lon="6.26349">
        <ele>849.8</ele>
        <time>2019-11-27T15:48:53Z</time>
      </trkpt>
      <trkpt lat="43.65479" lon="6.2636">
        <ele>848.7</ele>
        <time>2019-11-27T15:49:02Z</time>
      </trkpt>
      <trkpt lat="43.65485" lon="6.26371">
        <ele>847</ele>
        <time>2019-11-27T15:49:13Z</time>
      </trkpt>
      <trkpt lat="43.65492" lon="6.2638">
        <ele>845.8</ele>
        <time>2019-11-27T15:49:21Z</time>
      </trkpt>
      <trkpt lat="43.655" lon="6.26388">
        <ele>844.1</ele>
        <time>2019-11-27T15:49:31Z</time>
      </trkpt>
      <trkpt lat="43.65508" lon="6.26396">
        <ele>842.2</ele>
        <time>2019-11-27T15:49:41Z</time>
      </trkpt>
      <trkpt lat="43.65514" lon="6.26406">
        <ele>841</ele>
        <time>2019-11-27T15:49:48Z</time>
      </trkpt>
      <trkpt lat="43.65522" lon="6.26414">
        <ele>839.8</ele>
        <time>2019-11-27T15:49:56Z</time>
      </trkpt>
      <trkpt lat="43.6553" lon="6.26421">
        <ele>838.5</ele>
        <time>2019-11-27T15:50:04Z</time>
      </trkpt>
      <trkpt lat="43.65537" lon="6.26429">
        <ele>837.5</ele>
        <time>2019-11-27T15:50:12Z</time>
      </trkpt>
      <trkpt lat="43.65546" lon="6.26435">
        <ele>836.4</ele>
        <time>2019-11-27T15:50:21Z</time>
      </trkpt>
      <trkpt lat="43.65555" lon="6.26441">
        <ele>835.3</ele>
        <time>2019-11-27T15:50:30Z</time>
      </trkpt>
      <trkpt lat="43.65563" lon="6.26448">
        <ele>834.2</ele>
        <time>2019-11-27T15:50:40Z</time>
      </trkpt>
      <trkpt lat="43.65573" lon="6.26453">
        <ele>833.9</ele>
        <time>2019-11-27T15:50:50Z</time>
      </trkpt>
      <trkpt lat="43.65582" lon="6.26456">
        <ele>833.5</ele>
        <time>2019-11-27T15:50:58Z</time>
      </trkpt>
      <trkpt lat="43.65591" lon="6.2646">
        <ele>832.8</ele>
        <time>2019-11-27T15:51:06Z</time>
      </trkpt>
      <trkpt lat="43.656" lon="6.26465">
        <ele>832.4</ele>
        <time>2019-11-27T15:51:14Z</time>
      </trkpt>
      <trkpt lat="43.65608" lon="6.2647">
        <ele>831.9</ele>
        <time>2019-11-27T15:51:24Z</time>
      </trkpt>
      <trkpt lat="43.65615" lon="6.26479">
        <ele>830.4</ele>
        <time>2019-11-27T15:51:39Z</time>
      </trkpt>
      <trkpt lat="43.65623" lon="6.26485">
        <ele>828.6</ele>
        <time>2019-11-27T15:52:57Z</time>
      </trkpt>
      <trkpt lat="43.65627" lon="6.26497">
        <ele>828.4</ele>
        <time>2019-11-27T15:53:10Z</time>
      </trkpt>
      <trkpt lat="43.65629" lon="6.2651">
        <ele>827.7</ele>
        <time>2019-11-27T15:53:20Z</time>
      </trkpt>
      <trkpt lat="43.65632" lon="6.26524">
        <ele>827</ele>
        <time>2019-11-27T15:53:28Z</time>
      </trkpt>
      <trkpt lat="43.65634" lon="6.26537">
        <ele>826.5</ele>
        <time>2019-11-27T15:53:35Z</time>
      </trkpt>
      <trkpt lat="43.65634" lon="6.2655">
        <ele>825.9</ele>
        <time>2019-11-27T15:53:44Z</time>
      </trkpt>
      <trkpt lat="43.65634" lon="6.26563">
        <ele>825.4</ele>
        <time>2019-11-27T15:53:52Z</time>
      </trkpt>
      <trkpt lat="43.65631" lon="6.26577">
        <ele>825.2</ele>
        <time>2019-11-27T15:53:59Z</time>
      </trkpt>
      <trkpt lat="43.65627" lon="6.26588">
        <ele>824.9</ele>
        <time>2019-11-27T15:54:06Z</time>
      </trkpt>
      <trkpt lat="43.65621" lon="6.266">
        <ele>824.7</ele>
        <time>2019-11-27T15:54:15Z</time>
      </trkpt>
      <trkpt lat="43.65616" lon="6.2661">
        <ele>824.5</ele>
        <time>2019-11-27T15:54:23Z</time>
      </trkpt>
      <trkpt lat="43.6561" lon="6.2662">
        <ele>824.4</ele>
        <time>2019-11-27T15:54:32Z</time>
      </trkpt>
      <trkpt lat="43.65604" lon="6.26631">
        <ele>824.4</ele>
        <time>2019-11-27T15:54:41Z</time>
      </trkpt>
      <trkpt lat="43.65599" lon="6.26643">
        <ele>824.6</ele>
        <time>2019-11-27T15:54:50Z</time>
      </trkpt>
      <trkpt lat="43.65593" lon="6.26653">
        <ele>825</ele>
        <time>2019-11-27T15:54:59Z</time>
      </trkpt>
      <trkpt lat="43.65585" lon="6.2666">
        <ele>825.5</ele>
        <time>2019-11-27T15:55:07Z</time>
      </trkpt>
      <trkpt lat="43.65579" lon="6.2667">
        <ele>825.8</ele>
        <time>2019-11-27T15:55:16Z</time>
      </trkpt>
      <trkpt lat="43.65575" lon="6.26682">
        <ele>826</ele>
        <time>2019-11-27T15:55:24Z</time>
      </trkpt>
      <trkpt lat="43.65569" lon="6.26693">
        <ele>826.2</ele>
        <time>2019-11-27T15:55:32Z</time>
      </trkpt>
      <trkpt lat="43.65563" lon="6.26703">
        <ele>826.3</ele>
        <time>2019-11-27T15:55:40Z</time>
      </trkpt>
      <trkpt lat="43.65558" lon="6.26715">
        <ele>826.4</ele>
        <time>2019-11-27T15:55:50Z</time>
      </trkpt>
      <trkpt lat="43.65554" lon="6.26726">
        <ele>826.8</ele>
        <time>2019-11-27T15:56:00Z</time>
      </trkpt>
      <trkpt lat="43.65547" lon="6.26735">
        <ele>827.4</ele>
        <time>2019-11-27T15:56:09Z</time>
      </trkpt>
      <trkpt lat="43.65541" lon="6.26745">
        <ele>828</ele>
        <time>2019-11-27T15:56:18Z</time>
      </trkpt>
      <trkpt lat="43.65535" lon="6.26754">
        <ele>828.7</ele>
        <time>2019-11-27T15:56:27Z</time>
      </trkpt>
      <trkpt lat="43.65529" lon="6.26764">
        <ele>829.3</ele>
        <time>2019-11-27T15:56:36Z</time>
      </trkpt>
      <trkpt lat="43.65523" lon="6.26775">
        <ele>829.9</ele>
        <time>2019-11-27T15:56:46Z</time>
      </trkpt>
      <trkpt lat="43.65519" lon="6.26786">
        <ele>830.8</ele>
        <time>2019-11-27T15:56:56Z</time>
      </trkpt>
      <trkpt lat="43.65515" lon="6.26798">
        <ele>831.7</ele>
        <time>2019-11-27T15:57:06Z</time>
      </trkpt>
      <trkpt lat="43.65509" lon="6.26808">
        <ele>832.4</ele>
        <time>2019-11-27T15:57:16Z</time>
      </trkpt>
      <trkpt lat="43.65504" lon="6.26819">
        <ele>833.1</ele>
        <time>2019-11-27T15:57:26Z</time>
      </trkpt>
      <trkpt lat="43.65498" lon="6.2683">
        <ele>834</ele>
        <time>2019-11-27T15:57:36Z</time>
      </trkpt>
      <trkpt lat="43.65491" lon="6.2684">
        <ele>835.2</ele>
        <time>2019-11-27T15:57:45Z</time>
      </trkpt>
      <trkpt lat="43.65485" lon="6.26849">
        <ele>835.9</ele>
        <time>2019-11-27T15:57:55Z</time>
      </trkpt>
      <trkpt lat="43.6548" lon="6.2686">
        <ele>836.3</ele>
        <time>2019-11-27T15:58:04Z</time>
      </trkpt>
      <trkpt lat="43.65472" lon="6.26867">
        <ele>837</ele>
        <time>2019-11-27T15:58:12Z</time>
      </trkpt>
      <trkpt lat="43.65466" lon="6.26878">
        <ele>837.1</ele>
        <time>2019-11-27T15:58:21Z</time>
      </trkpt>
      <trkpt lat="43.65461" lon="6.26889">
        <ele>837.1</ele>
        <time>2019-11-27T15:58:30Z</time>
      </trkpt>
      <trkpt lat="43.65457" lon="6.26901">
        <ele>837.1</ele>
        <time>2019-11-27T15:58:39Z</time>
      </trkpt>
      <trkpt lat="43.65453" lon="6.26912">
        <ele>837.4</ele>
        <time>2019-11-27T15:58:48Z</time>
      </trkpt>
      <trkpt lat="43.65446" lon="6.26921">
        <ele>837.4</ele>
        <time>2019-11-27T15:58:57Z</time>
      </trkpt>
      <trkpt lat="43.65441" lon="6.26933">
        <ele>837.3</ele>
        <time>2019-11-27T15:59:05Z</time>
      </trkpt>
      <trkpt lat="43.65437" lon="6.26944">
        <ele>837</ele>
        <time>2019-11-27T15:59:13Z</time>
      </trkpt>
      <trkpt lat="43.65433" lon="6.26956">
        <ele>836.8</ele>
        <time>2019-11-27T15:59:21Z</time>
      </trkpt>
      <trkpt lat="43.65429" lon="6.26968">
        <ele>836.9</ele>
        <time>2019-11-27T15:59:30Z</time>
      </trkpt>
      <trkpt lat="43.65427" lon="6.26982">
        <ele>837</ele>
        <time>2019-11-27T15:59:38Z</time>
      </trkpt>
      <trkpt lat="43.65423" lon="6.26993">
        <ele>837.2</ele>
        <time>2019-11-27T15:59:47Z</time>
      </trkpt>
      <trkpt lat="43.65418" lon="6.27004">
        <ele>837.3</ele>
        <time>2019-11-27T15:59:55Z</time>
      </trkpt>
      <trkpt lat="43.65416" lon="6.27017">
        <ele>837.4</ele>
        <time>2019-11-27T16:00:02Z</time>
      </trkpt>
      <trkpt lat="43.65414" lon="6.2703">
        <ele>837.4</ele>
        <time>2019-11-27T16:00:10Z</time>
      </trkpt>
      <trkpt lat="43.65407" lon="6.2704">
        <ele>837.5</ele>
        <time>2019-11-27T16:00:20Z</time>
      </trkpt>
      <trkpt lat="43.65403" lon="6.27052">
        <ele>837.7</ele>
        <time>2019-11-27T16:00:31Z</time>
      </trkpt>
      <trkpt lat="43.65398" lon="6.27064">
        <ele>838.5</ele>
        <time>2019-11-27T16:00:41Z</time>
      </trkpt>
      <trkpt lat="43.65396" lon="6.27077">
        <ele>839.1</ele>
        <time>2019-11-27T16:00:49Z</time>
      </trkpt>
      <trkpt lat="43.65394" lon="6.2709">
        <ele>839.8</ele>
        <time>2019-11-27T16:00:58Z</time>
      </trkpt>
      <trkpt lat="43.6539" lon="6.27101">
        <ele>841</ele>
        <time>2019-11-27T16:01:07Z</time>
      </trkpt>
      <trkpt lat="43.65386" lon="6.27113">
        <ele>841.9</ele>
        <time>2019-11-27T16:01:16Z</time>
      </trkpt>
      <trkpt lat="43.65382" lon="6.27125">
        <ele>842.5</ele>
        <time>2019-11-27T16:01:26Z</time>
      </trkpt>
      <trkpt lat="43.65381" lon="6.27139">
        <ele>842.5</ele>
        <time>2019-11-27T16:01:35Z</time>
      </trkpt>
      <trkpt lat="43.65381" lon="6.27152">
        <ele>842.5</ele>
        <time>2019-11-27T16:01:42Z</time>
      </trkpt>
      <trkpt lat="43.65379" lon="6.27164">
        <ele>842.5</ele>
        <time>2019-11-27T16:01:50Z</time>
      </trkpt>
      <trkpt lat="43.65374" lon="6.27175">
        <ele>842.7</ele>
        <time>2019-11-27T16:02:03Z</time>
      </trkpt>
      <trkpt lat="43.65371" lon="6.27188">
        <ele>843</ele>
        <time>2019-11-27T16:02:14Z</time>
      </trkpt>
      <trkpt lat="43.65369" lon="6.272">
        <ele>843.3</ele>
        <time>2019-11-27T16:02:24Z</time>
      </trkpt>
      <trkpt lat="43.65366" lon="6.27213">
        <ele>843.8</ele>
        <time>2019-11-27T16:02:38Z</time>
      </trkpt>
      <trkpt lat="43.65366" lon="6.27226">
        <ele>843.9</ele>
        <time>2019-11-27T16:02:46Z</time>
      </trkpt>
      <trkpt lat="43.6536" lon="6.27235">
        <ele>844</ele>
        <time>2019-11-27T16:02:55Z</time>
      </trkpt>
      <trkpt lat="43.65361" lon="6.27248">
        <ele>844.2</ele>
        <time>2019-11-27T16:03:04Z</time>
      </trkpt>
      <trkpt lat="43.65363" lon="6.27261">
        <ele>844.4</ele>
        <time>2019-11-27T16:03:12Z</time>
      </trkpt>
      <trkpt lat="43.6537" lon="6.27269">
        <ele>843.8</ele>
        <time>2019-11-27T16:03:23Z</time>
      </trkpt>
      <trkpt lat="43.65377" lon="6.27278">
        <ele>843.2</ele>
        <time>2019-11-27T16:03:31Z</time>
      </trkpt>
      <trkpt lat="43.6538" lon="6.2729">
        <ele>842.8</ele>
        <time>2019-11-27T16:03:38Z</time>
      </trkpt>
      <trkpt lat="43.6538" lon="6.27303">
        <ele>842.6</ele>
        <time>2019-11-27T16:03:45Z</time>
      </trkpt>
      <trkpt lat="43.65378" lon="6.27316">
        <ele>842.7</ele>
        <time>2019-11-27T16:03:53Z</time>
      </trkpt>
      <trkpt lat="43.65377" lon="6.27329">
        <ele>842.8</ele>
        <time>2019-11-27T16:04:01Z</time>
      </trkpt>
      <trkpt lat="43.65373" lon="6.2734">
        <ele>842.9</ele>
        <time>2019-11-27T16:04:09Z</time>
      </trkpt>
      <trkpt lat="43.65367" lon="6.27351">
        <ele>843.3</ele>
        <time>2019-11-27T16:04:21Z</time>
      </trkpt>
      <trkpt lat="43.65359" lon="6.27357">
        <ele>843.4</ele>
        <time>2019-11-27T16:04:32Z</time>
      </trkpt>
      <trkpt lat="43.65352" lon="6.27366">
        <ele>843.7</ele>
        <time>2019-11-27T16:04:41Z</time>
      </trkpt>
      <trkpt lat="43.65349" lon="6.27378">
        <ele>844.1</ele>
        <time>2019-11-27T16:04:49Z</time>
      </trkpt>
      <trkpt lat="43.65345" lon="6.27391">
        <ele>844.2</ele>
        <time>2019-11-27T16:04:59Z</time>
      </trkpt>
      <trkpt lat="43.65345" lon="6.27404">
        <ele>844.1</ele>
        <time>2019-11-27T16:05:07Z</time>
      </trkpt>
      <trkpt lat="43.65346" lon="6.27417">
        <ele>844.1</ele>
        <time>2019-11-27T16:05:15Z</time>
      </trkpt>
      <trkpt lat="43.65347" lon="6.2743">
        <ele>844.2</ele>
        <time>2019-11-27T16:05:24Z</time>
      </trkpt>
      <trkpt lat="43.65347" lon="6.27443">
        <ele>844.7</ele>
        <time>2019-11-27T16:05:34Z</time>
      </trkpt>
      <trkpt lat="43.6535" lon="6.27455">
        <ele>845.4</ele>
        <time>2019-11-27T16:06:13Z</time>
      </trkpt>
      <trkpt lat="43.65358" lon="6.2746">
        <ele>847.4</ele>
        <time>2019-11-27T16:06:42Z</time>
      </trkpt>
      <trkpt lat="43.65367" lon="6.27462">
        <ele>850.2</ele>
        <time>2019-11-27T16:07:08Z</time>
      </trkpt>
      <trkpt lat="43.65375" lon="6.27455">
        <ele>851.8</ele>
        <time>2019-11-27T16:07:28Z</time>
      </trkpt>
      <trkpt lat="43.65382" lon="6.27445">
        <ele>853.1</ele>
        <time>2019-11-27T16:07:44Z</time>
      </trkpt>
      <trkpt lat="43.65387" lon="6.27435">
        <ele>854</ele>
        <time>2019-11-27T16:07:54Z</time>
      </trkpt>
      <trkpt lat="43.65394" lon="6.27426">
        <ele>854.5</ele>
        <time>2019-11-27T16:08:02Z</time>
      </trkpt>
      <trkpt lat="43.65403" lon="6.27419">
        <ele>855</ele>
        <time>2019-11-27T16:08:12Z</time>
      </trkpt>
      <trkpt lat="43.65412" lon="6.27413">
        <ele>855.6</ele>
        <time>2019-11-27T16:08:21Z</time>
      </trkpt>
      <trkpt lat="43.65417" lon="6.27401">
        <ele>857.6</ele>
        <time>2019-11-27T16:08:39Z</time>
      </trkpt>
      <trkpt lat="43.65424" lon="6.27393">
        <ele>859.1</ele>
        <time>2019-11-27T16:08:54Z</time>
      </trkpt>
      <trkpt lat="43.6543" lon="6.27383">
        <ele>859.9</ele>
        <time>2019-11-27T16:09:07Z</time>
      </trkpt>
      <trkpt lat="43.65438" lon="6.2738">
        <ele>860.7</ele>
        <time>2019-11-27T16:09:21Z</time>
      </trkpt>
      <trkpt lat="43.65448" lon="6.27376">
        <ele>860.3</ele>
        <time>2019-11-27T16:09:44Z</time>
      </trkpt>
      <trkpt lat="43.65453" lon="6.27366">
        <ele>859.9</ele>
        <time>2019-11-27T16:09:53Z</time>
      </trkpt>
      <trkpt lat="43.65462" lon="6.27361">
        <ele>859</ele>
        <time>2019-11-27T16:10:13Z</time>
      </trkpt>
      <trkpt lat="43.6547" lon="6.27359">
        <ele>857</ele>
        <time>2019-11-27T16:10:25Z</time>
      </trkpt>
      <trkpt lat="43.65478" lon="6.2735">
        <ele>856.9</ele>
        <time>2019-11-27T16:10:35Z</time>
      </trkpt>
      <trkpt lat="43.65485" lon="6.27343">
        <ele>855.4</ele>
        <time>2019-11-27T16:10:50Z</time>
      </trkpt>
      <trkpt lat="43.65494" lon="6.27337">
        <ele>854.5</ele>
        <time>2019-11-27T16:10:57Z</time>
      </trkpt>
      <trkpt lat="43.65499" lon="6.27327">
        <ele>853.7</ele>
        <time>2019-11-27T16:11:06Z</time>
      </trkpt>
      <trkpt lat="43.65501" lon="6.27314">
        <ele>853.5</ele>
        <time>2019-11-27T16:11:22Z</time>
      </trkpt>
      <trkpt lat="43.65503" lon="6.27302">
        <ele>854.6</ele>
        <time>2019-11-27T16:11:40Z</time>
      </trkpt>
      <trkpt lat="43.65495" lon="6.27296">
        <ele>857.3</ele>
        <time>2019-11-27T16:12:13Z</time>
      </trkpt>
      <trkpt lat="43.65496" lon="6.27309">
        <ele>854.5</ele>
        <time>2019-11-27T16:14:18Z</time>
      </trkpt>
      <trkpt lat="43.65495" lon="6.27321">
        <ele>853.1</ele>
        <time>2019-11-27T16:14:39Z</time>
      </trkpt>
      <trkpt lat="43.65488" lon="6.27328">
        <ele>853.6</ele>
        <time>2019-11-27T16:14:52Z</time>
      </trkpt>
      <trkpt lat="43.65485" lon="6.27341">
        <ele>854.4</ele>
        <time>2019-11-27T16:15:04Z</time>
      </trkpt>
      <trkpt lat="43.6548" lon="6.27351">
        <ele>855.9</ele>
        <time>2019-11-27T16:15:20Z</time>
      </trkpt>
      <trkpt lat="43.6547" lon="6.27354">
        <ele>857.2</ele>
        <time>2019-11-27T16:15:32Z</time>
      </trkpt>
      <trkpt lat="43.65461" lon="6.27354">
        <ele>860.1</ele>
        <time>2019-11-27T16:16:01Z</time>
      </trkpt>
      <trkpt lat="43.65452" lon="6.27354">
        <ele>861</ele>
        <time>2019-11-27T16:16:16Z</time>
      </trkpt>
      <trkpt lat="43.65444" lon="6.27361">
        <ele>860.6</ele>
        <time>2019-11-27T16:16:25Z</time>
      </trkpt>
      <trkpt lat="43.65437" lon="6.27369">
        <ele>860</ele>
        <time>2019-11-27T16:16:38Z</time>
      </trkpt>
      <trkpt lat="43.6543" lon="6.27378">
        <ele>859.6</ele>
        <time>2019-11-27T16:16:48Z</time>
      </trkpt>
      <trkpt lat="43.65426" lon="6.2739">
        <ele>858.8</ele>
        <time>2019-11-27T16:17:03Z</time>
      </trkpt>
      <trkpt lat="43.65418" lon="6.27397">
        <ele>858</ele>
        <time>2019-11-27T16:17:13Z</time>
      </trkpt>
      <trkpt lat="43.65414" lon="6.27408">
        <ele>857</ele>
        <time>2019-11-27T16:17:28Z</time>
      </trkpt>
      <trkpt lat="43.65405" lon="6.27414">
        <ele>856.5</ele>
        <time>2019-11-27T16:17:34Z</time>
      </trkpt>
      <trkpt lat="43.65396" lon="6.27421">
        <ele>855.8</ele>
        <time>2019-11-27T16:17:41Z</time>
      </trkpt>
      <trkpt lat="43.65388" lon="6.27429">
        <ele>855.3</ele>
        <time>2019-11-27T16:17:50Z</time>
      </trkpt>
      <trkpt lat="43.65381" lon="6.27437">
        <ele>854.2</ele>
        <time>2019-11-27T16:18:00Z</time>
      </trkpt>
      <trkpt lat="43.6538" lon="6.2745">
        <ele>853.3</ele>
        <time>2019-11-27T16:18:15Z</time>
      </trkpt>
      <trkpt lat="43.65373" lon="6.2746">
        <ele>852.1</ele>
        <time>2019-11-27T16:18:30Z</time>
      </trkpt>
      <trkpt lat="43.65364" lon="6.27462">
        <ele>850.3</ele>
        <time>2019-11-27T16:18:51Z</time>
      </trkpt>
      <trkpt lat="43.65355" lon="6.27459">
        <ele>846.5</ele>
        <time>2019-11-27T16:19:31Z</time>
      </trkpt>
      <trkpt lat="43.65353" lon="6.27446">
        <ele>845.5</ele>
        <time>2019-11-27T16:19:44Z</time>
      </trkpt>
      <trkpt lat="43.65353" lon="6.27433">
        <ele>845.2</ele>
        <time>2019-11-27T16:19:55Z</time>
      </trkpt>
      <trkpt lat="43.65351" lon="6.2742">
        <ele>845.1</ele>
        <time>2019-11-27T16:20:03Z</time>
      </trkpt>
      <trkpt lat="43.65347" lon="6.27409">
        <ele>845.1</ele>
        <time>2019-11-27T16:20:12Z</time>
      </trkpt>
      <trkpt lat="43.65336" lon="6.27412">
        <ele>845</ele>
        <time>2019-11-27T16:20:25Z</time>
      </trkpt>
      <trkpt lat="43.65327" lon="6.27417">
        <ele>845</ele>
        <time>2019-11-27T16:20:32Z</time>
      </trkpt>
      <trkpt lat="43.65318" lon="6.27421">
        <ele>844.9</ele>
        <time>2019-11-27T16:20:41Z</time>
      </trkpt>
      <trkpt lat="43.65309" lon="6.27424">
        <ele>844.8</ele>
        <time>2019-11-27T16:20:47Z</time>
      </trkpt>
      <trkpt lat="43.65301" lon="6.2743">
        <ele>844.8</ele>
        <time>2019-11-27T16:20:54Z</time>
      </trkpt>
      <trkpt lat="43.65292" lon="6.27434">
        <ele>844.6</ele>
        <time>2019-11-27T16:21:01Z</time>
      </trkpt>
      <trkpt lat="43.65284" lon="6.27443">
        <ele>844.7</ele>
        <time>2019-11-27T16:21:11Z</time>
      </trkpt>
      <trkpt lat="43.65277" lon="6.2745">
        <ele>844.8</ele>
        <time>2019-11-27T16:21:19Z</time>
      </trkpt>
      <trkpt lat="43.65269" lon="6.27456">
        <ele>844.9</ele>
        <time>2019-11-27T16:21:26Z</time>
      </trkpt>
      <trkpt lat="43.65261" lon="6.27463">
        <ele>844.9</ele>
        <time>2019-11-27T16:21:34Z</time>
      </trkpt>
      <trkpt lat="43.65253" lon="6.2747">
        <ele>844.9</ele>
        <time>2019-11-27T16:21:42Z</time>
      </trkpt>
      <trkpt lat="43.65245" lon="6.27478">
        <ele>845.1</ele>
        <time>2019-11-27T16:21:51Z</time>
      </trkpt>
      <trkpt lat="43.65234" lon="6.27484">
        <ele>845</ele>
        <time>2019-11-27T16:22:03Z</time>
      </trkpt>
      <trkpt lat="43.65225" lon="6.27488">
        <ele>845.1</ele>
        <time>2019-11-27T16:22:10Z</time>
      </trkpt>
      <trkpt lat="43.65218" lon="6.27495">
        <ele>845</ele>
        <time>2019-11-27T16:22:19Z</time>
      </trkpt>
      <trkpt lat="43.65209" lon="6.27502">
        <ele>845</ele>
        <time>2019-11-27T16:22:27Z</time>
      </trkpt>
      <trkpt lat="43.65209" lon="6.27506">
        <ele>844.8</ele>
        <time>2019-11-27T16:22:54Z</time>
      </trkpt>
    </trkseg>
  </trk>
</gpx>